PWSweather.com
Personal Weather Stations
Station Observations
KD5LEN
Ktxnorth1, North Richland Hills, TX 76180

Ktxnorth1North Richland Hills, TX 76180

Lat: 32.885294, Lon: -97.236048

Elevation: 694

Station Type: Vantage Pro 2

http://www.atzer0.net/VWS/root/index.htm

High Low Average
Temperature 76.8°F24.9°C 61.7°F16.5°C 69.5°F20.8°C
Dew Point 62.5°F16.9°C 50.9°F10.5°C 59.4°F15.2°C
Winds 30.0 mph 48.3 kmh 1.0 mph 1.6 kmh 8.0 mph S12.9 kmh S
Wind Gusts 34.0 mph54.7 kmh 5.0 mph8.0 kmh 17.0 mph27.4 kmh
Humidity 84% 57% 71%
Pressure 29.88 in1011.9 mb 29.75 in1007.5 mb -
Precipitation 0.00 in0.0 mm - -
Hour Temp Dew Point Humidity Winds Wind Gusts Pressure Precip Precip Rate Daily Precip Total
12:00 AM 64.2°F17.9°C 51.4°F10.8°C 63% 5.0 mph S8.0 kmh S 13.0 mph20.9 kmh 29.85 in1010.8 mb 0.00 in0.0 mm 0.00 in0.0 mm 0.00 in0.0 mm
12:02 AM 64.2°F17.9°C 51.4°F10.8°C 63% 5.0 mph S8.0 kmh S 13.0 mph20.9 kmh 29.85 in1010.8 mb 0.00 in0.0 mm 0.00 in0.0 mm 0.00 in0.0 mm
12:04 AM 64.1°F17.8°C 51.3°F10.7°C 63% 6.0 mph SE9.7 kmh SE 12.0 mph19.3 kmh 29.85 in1010.8 mb 0.00 in0.0 mm 0.00 in0.0 mm 0.00 in0.0 mm
12:06 AM 64.1°F17.8°C 51.3°F10.7°C 63% 4.0 mph S6.4 kmh S 12.0 mph19.3 kmh 29.85 in1010.8 mb 0.00 in0.0 mm 0.00 in0.0 mm 0.00 in0.0 mm
12:08 AM 64.0°F17.8°C 51.2°F10.7°C 63% 6.0 mph S9.7 kmh S 12.0 mph19.3 kmh 29.85 in1010.8 mb 0.00 in0.0 mm 0.00 in0.0 mm 0.00 in0.0 mm
12:10 AM 64.0°F17.8°C 51.2°F10.7°C 63% 8.0 mph S12.9 kmh S 12.0 mph19.3 kmh 29.85 in1010.8 mb 0.00 in0.0 mm 0.00 in0.0 mm 0.00 in0.0 mm
12:12 AM 63.8°F17.7°C 51.0°F10.6°C 63% 6.0 mph S9.7 kmh S 12.0 mph19.3 kmh 29.85 in1010.8 mb 0.00 in0.0 mm 0.00 in0.0 mm 0.00 in0.0 mm
12:13 AM 63.7°F17.6°C 50.9°F10.5°C 63% 6.0 mph S9.7 kmh S 12.0 mph19.3 kmh 29.85 in1010.8 mb 0.00 in0.0 mm 0.00 in0.0 mm 0.00 in0.0 mm
12:16 AM 63.7°F17.6°C 51.3°F10.7°C 64% 4.0 mph S6.4 kmh S 12.0 mph19.3 kmh 29.85 in1010.8 mb 0.00 in0.0 mm 0.00 in0.0 mm 0.00 in0.0 mm
12:18 AM 63.7°F17.6°C 51.3°F10.7°C 64% 3.0 mph SSE4.8 kmh SSE 12.0 mph19.3 kmh 29.85 in1010.8 mb 0.00 in0.0 mm 0.00 in0.0 mm 0.00 in0.0 mm
12:20 AM 63.5°F17.5°C 51.1°F10.6°C 64% 4.0 mph SE6.4 kmh SE 12.0 mph19.3 kmh 29.85 in1010.8 mb 0.00 in0.0 mm 0.00 in0.0 mm 0.00 in0.0 mm
12:22 AM 63.5°F17.5°C 51.1°F10.6°C 64% 10.0 mph S16.1 kmh S 12.0 mph19.3 kmh 29.85 in1010.8 mb 0.00 in0.0 mm 0.00 in0.0 mm 0.00 in0.0 mm
12:24 AM 63.4°F17.4°C 51.0°F10.6°C 64% 9.0 mph S14.5 kmh S 12.0 mph19.3 kmh 29.85 in1010.8 mb 0.00 in0.0 mm 0.00 in0.0 mm 0.00 in0.0 mm
12:26 AM 63.3°F17.4°C 50.9°F10.5°C 64% 6.0 mph S9.7 kmh S 12.0 mph19.3 kmh 29.85 in1010.8 mb 0.00 in0.0 mm 0.00 in0.0 mm 0.00 in0.0 mm
12:28 AM 63.3°F17.4°C 51.4°F10.8°C 65% 2.0 mph S3.2 kmh S 12.0 mph19.3 kmh 29.85 in1010.8 mb 0.00 in0.0 mm 0.00 in0.0 mm 0.00 in0.0 mm
12:30 AM 63.3°F17.4°C 51.4°F10.8°C 65% 6.0 mph SSE9.7 kmh SSE 12.0 mph19.3 kmh 29.85 in1010.8 mb 0.00 in0.0 mm 0.00 in0.0 mm 0.00 in0.0 mm
12:32 AM 63.2°F17.3°C 51.3°F10.7°C 65% 9.0 mph SSW14.5 kmh SSW 12.0 mph19.3 kmh 29.85 in1010.8 mb 0.00 in0.0 mm 0.00 in0.0 mm 0.00 in0.0 mm
12:34 AM 63.1°F17.3°C 51.2°F10.7°C 65% 6.0 mph S9.7 kmh S 11.0 mph17.7 kmh 29.85 in1010.8 mb 0.00 in0.0 mm 0.00 in0.0 mm 0.00 in0.0 mm
12:36 AM 63.1°F17.3°C 51.2°F10.7°C 65% 4.0 mph SSE6.4 kmh SSE 11.0 mph17.7 kmh 29.85 in1010.8 mb 0.00 in0.0 mm 0.00 in0.0 mm 0.00 in0.0 mm
12:38 AM 63.0°F17.2°C 51.1°F10.6°C 65% 5.0 mph SSE8.0 kmh SSE 11.0 mph17.7 kmh 29.85 in1010.8 mb 0.00 in0.0 mm 0.00 in0.0 mm 0.00 in0.0 mm
12:40 AM 63.0°F17.2°C 51.5°F10.8°C 66% 7.0 mph SSE11.3 kmh SSE 11.0 mph17.7 kmh 29.85 in1010.8 mb 0.00 in0.0 mm 0.00 in0.0 mm 0.00 in0.0 mm
12:42 AM 62.9°F17.2°C 51.4°F10.8°C 66% 4.0 mph SSE6.4 kmh SSE 11.0 mph17.7 kmh 29.85 in1010.8 mb 0.00 in0.0 mm 0.00 in0.0 mm 0.00 in0.0 mm
12:44 AM 62.9°F17.2°C 51.4°F10.8°C 66% 1.0 mph S1.6 kmh S 11.0 mph17.7 kmh 29.85 in1010.8 mb 0.00 in0.0 mm 0.00 in0.0 mm 0.00 in0.0 mm
12:46 AM 62.9°F17.2°C 51.4°F10.8°C 66% 3.0 mph S4.8 kmh S 11.0 mph17.7 kmh 29.85 in1010.8 mb 0.00 in0.0 mm 0.00 in0.0 mm 0.00 in0.0 mm
12:48 AM 62.9°F17.2°C 51.4°F10.8°C 66% 8.0 mph SE12.9 kmh SE 11.0 mph17.7 kmh 29.85 in1010.8 mb 0.00 in0.0 mm 0.00 in0.0 mm 0.00 in0.0 mm
12:50 AM 62.9°F17.2°C 51.4°F10.8°C 66% 7.0 mph SSE11.3 kmh SSE 11.0 mph17.7 kmh 29.85 in1010.8 mb 0.00 in0.0 mm 0.00 in0.0 mm 0.00 in0.0 mm
12:52 AM 62.9°F17.2°C 51.4°F10.8°C 66% 5.0 mph S8.0 kmh S 11.0 mph17.7 kmh 29.85 in1010.8 mb 0.00 in0.0 mm 0.00 in0.0 mm 0.00 in0.0 mm
12:54 AM 62.8°F17.1°C 51.3°F10.7°C 66% 4.0 mph S6.4 kmh S 11.0 mph17.7 kmh 29.85 in1010.8 mb 0.00 in0.0 mm 0.00 in0.0 mm 0.00 in0.0 mm
12:56 AM 62.7°F17.1°C 51.2°F10.7°C 66% 6.0 mph S9.7 kmh S 11.0 mph17.7 kmh 29.85 in1010.8 mb 0.00 in0.0 mm 0.00 in0.0 mm 0.00 in0.0 mm
12:58 AM 62.8°F17.1°C 51.7°F10.9°C 67% 6.0 mph S9.7 kmh S 11.0 mph17.7 kmh 29.85 in1010.8 mb 0.00 in0.0 mm 0.00 in0.0 mm 0.00 in0.0 mm
01:00 AM 62.7°F17.1°C 51.2°F10.7°C 66% 4.0 mph SSW6.4 kmh SSW 12.0 mph19.3 kmh 29.85 in1010.8 mb 0.00 in0.0 mm 0.00 in0.0 mm 0.00 in0.0 mm
01:02 AM 62.7°F17.1°C 51.6°F10.9°C 67% 6.0 mph SSW9.7 kmh SSW 12.0 mph19.3 kmh 29.85 in1010.8 mb 0.00 in0.0 mm 0.00 in0.0 mm 0.00 in0.0 mm
01:04 AM 62.7°F17.1°C 51.6°F10.9°C 67% 3.0 mph SSW4.8 kmh SSW 7.0 mph11.3 kmh 29.85 in1010.8 mb 0.00 in0.0 mm 0.00 in0.0 mm 0.00 in0.0 mm
01:06 AM 62.6°F17.0°C 51.5°F10.8°C 67% 5.0 mph SSW8.0 kmh SSW 9.0 mph14.5 kmh 29.85 in1010.8 mb 0.00 in0.0 mm 0.00 in0.0 mm 0.00 in0.0 mm
01:08 AM 62.6°F17.0°C 51.5°F10.8°C 67% 5.0 mph S8.0 kmh S 9.0 mph14.5 kmh 29.85 in1010.8 mb 0.00 in0.0 mm 0.00 in0.0 mm 0.00 in0.0 mm
01:10 AM 62.6°F17.0°C 51.5°F10.8°C 67% 4.0 mph SSE6.4 kmh SSE 9.0 mph14.5 kmh 29.84 in1010.5 mb 0.00 in0.0 mm 0.00 in0.0 mm 0.00 in0.0 mm
01:12 AM 62.5°F16.9°C 51.4°F10.8°C 67% 1.0 mph S1.6 kmh S 9.0 mph14.5 kmh 29.85 in1010.8 mb 0.00 in0.0 mm 0.00 in0.0 mm 0.00 in0.0 mm
01:14 AM 62.5°F16.9°C 51.4°F10.8°C 67% 1.0 mph SSE1.6 kmh SSE 9.0 mph14.5 kmh 29.85 in1010.8 mb 0.00 in0.0 mm 0.00 in0.0 mm 0.00 in0.0 mm
01:16 AM 62.4°F16.9°C 51.3°F10.7°C 67% 2.0 mph S3.2 kmh S 9.0 mph14.5 kmh 29.85 in1010.8 mb 0.00 in0.0 mm 0.00 in0.0 mm 0.00 in0.0 mm
01:18 AM 62.3°F16.8°C 51.2°F10.7°C 67% 3.0 mph SSE4.8 kmh SSE 9.0 mph14.5 kmh 29.85 in1010.8 mb 0.00 in0.0 mm 0.00 in0.0 mm 0.00 in0.0 mm
01:20 AM 62.3°F16.8°C 51.2°F10.7°C 67% 9.0 mph SE14.5 kmh SE 11.0 mph17.7 kmh 29.85 in1010.8 mb 0.00 in0.0 mm 0.00 in0.0 mm 0.00 in0.0 mm
01:22 AM 62.3°F16.8°C 51.2°F10.7°C 67% 4.0 mph SSE6.4 kmh SSE 11.0 mph17.7 kmh 29.85 in1010.8 mb 0.00 in0.0 mm 0.00 in0.0 mm 0.00 in0.0 mm
01:24 AM 62.3°F16.8°C 51.2°F10.7°C 67% 6.0 mph SSE9.7 kmh SSE 11.0 mph17.7 kmh 29.85 in1010.8 mb 0.00 in0.0 mm 0.00 in0.0 mm 0.00 in0.0 mm
01:26 AM 62.3°F16.8°C 51.6°F10.9°C 68% 5.0 mph S8.0 kmh S 11.0 mph17.7 kmh 29.85 in1010.8 mb 0.00 in0.0 mm 0.00 in0.0 mm 0.00 in0.0 mm
01:28 AM 62.3°F16.8°C 51.2°F10.7°C 67% 8.0 mph S12.9 kmh S 11.0 mph17.7 kmh 29.85 in1010.8 mb 0.00 in0.0 mm 0.00 in0.0 mm 0.00 in0.0 mm
01:30 AM 62.4°F16.9°C 51.3°F10.7°C 67% 2.0 mph SE3.2 kmh SE 11.0 mph17.7 kmh 29.85 in1010.8 mb 0.00 in0.0 mm 0.00 in0.0 mm 0.00 in0.0 mm
01:32 AM 62.3°F16.8°C 51.2°F10.7°C 67% 3.0 mph SE4.8 kmh SE 11.0 mph17.7 kmh 29.85 in1010.8 mb 0.00 in0.0 mm 0.00 in0.0 mm 0.00 in0.0 mm
01:34 AM 62.3°F16.8°C 51.6°F10.9°C 68% 7.0 mph SE11.3 kmh SE 9.0 mph14.5 kmh 29.85 in1010.8 mb 0.00 in0.0 mm 0.00 in0.0 mm 0.00 in0.0 mm
01:36 AM 62.3°F16.8°C 51.6°F10.9°C 68% 12.0 mph S19.3 kmh S 14.0 mph22.5 kmh 29.85 in1010.8 mb 0.00 in0.0 mm 0.00 in0.0 mm 0.00 in0.0 mm
01:38 AM 62.3°F16.8°C 51.6°F10.9°C 68% 7.0 mph SSE11.3 kmh SSE 14.0 mph22.5 kmh 29.85 in1010.8 mb 0.00 in0.0 mm 0.00 in0.0 mm 0.00 in0.0 mm
01:40 AM 62.3°F16.8°C 51.6°F10.9°C 68% 7.0 mph S11.3 kmh S 14.0 mph22.5 kmh 29.85 in1010.8 mb 0.00 in0.0 mm 0.00 in0.0 mm 0.00 in0.0 mm
01:42 AM 62.2°F16.8°C 51.5°F10.8°C 68% 4.0 mph SSW6.4 kmh SSW 14.0 mph22.5 kmh 29.85 in1010.8 mb 0.00 in0.0 mm 0.00 in0.0 mm 0.00 in0.0 mm
01:44 AM 62.1°F16.7°C 51.4°F10.8°C 68% 4.0 mph SSE6.4 kmh SSE 14.0 mph22.5 kmh 29.85 in1010.8 mb 0.00 in0.0 mm 0.00 in0.0 mm 0.00 in0.0 mm
01:46 AM 62.1°F16.7°C 51.4°F10.8°C 68% 10.0 mph S16.1 kmh S 14.0 mph22.5 kmh 29.85 in1010.8 mb 0.00 in0.0 mm 0.00 in0.0 mm 0.00 in0.0 mm
01:48 AM 62.1°F16.7°C 51.4°F10.8°C 68% 11.0 mph SSE17.7 kmh SSE 14.0 mph22.5 kmh 29.85 in1010.8 mb 0.00 in0.0 mm 0.00 in0.0 mm 0.00 in0.0 mm
01:50 AM 62.0°F16.7°C 51.3°F10.7°C 68% 6.0 mph SW9.7 kmh SW 14.0 mph22.5 kmh 29.85 in1010.8 mb 0.00 in0.0 mm 0.00 in0.0 mm 0.00 in0.0 mm
01:52 AM 62.0°F16.7°C 51.3°F10.7°C 68% 6.0 mph SE9.7 kmh SE 14.0 mph22.5 kmh 29.85 in1010.8 mb 0.00 in0.0 mm 0.00 in0.0 mm 0.00 in0.0 mm
01:54 AM 61.9°F16.6°C 51.2°F10.7°C 68% 4.0 mph S6.4 kmh S 14.0 mph22.5 kmh 29.85 in1010.8 mb 0.00 in0.0 mm 0.00 in0.0 mm 0.00 in0.0 mm
01:56 AM 61.9°F16.6°C 51.6°F10.9°C 69% 10.0 mph SE16.1 kmh SE 14.0 mph22.5 kmh 29.85 in1010.8 mb 0.00 in0.0 mm 0.00 in0.0 mm 0.00 in0.0 mm
01:58 AM 61.8°F16.6°C 51.5°F10.8°C 69% 9.0 mph SE14.5 kmh SE 14.0 mph22.5 kmh 29.85 in1010.8 mb 0.00 in0.0 mm 0.00 in0.0 mm 0.00 in0.0 mm
02:00 AM 61.7°F16.5°C 51.4°F10.8°C 69% 7.0 mph S11.3 kmh S 14.0 mph22.5 kmh 29.85 in1010.8 mb 0.00 in0.0 mm 0.00 in0.0 mm 0.00 in0.0 mm
02:02 AM 61.7°F16.5°C 51.4°F10.8°C 69% 13.0 mph S20.9 kmh S 14.0 mph22.5 kmh 29.85 in1010.8 mb 0.00 in0.0 mm 0.00 in0.0 mm 0.00 in0.0 mm
02:04 AM 61.7°F16.5°C 51.4°F10.8°C 69% 4.0 mph S6.4 kmh S 11.0 mph17.7 kmh 29.85 in1010.8 mb 0.00 in0.0 mm 0.00 in0.0 mm 0.00 in0.0 mm
06:04 AM 62.7°F17.1°C 57.5°F14.2°C 83% 13.0 mph S20.9 kmh S 13.0 mph20.9 kmh 29.84 in1010.5 mb 0.00 in0.0 mm 0.00 in0.0 mm 0.00 in0.0 mm
06:06 AM 62.6°F17.0°C 57.4°F14.1°C 83% 8.0 mph SE12.9 kmh SE 13.0 mph20.9 kmh 29.84 in1010.5 mb 0.00 in0.0 mm 0.00 in0.0 mm 0.00 in0.0 mm
06:08 AM 62.6°F17.0°C 57.4°F14.1°C 83% 2.0 mph SE3.2 kmh SE 14.0 mph22.5 kmh 29.84 in1010.5 mb 0.00 in0.0 mm 0.00 in0.0 mm 0.00 in0.0 mm
06:10 AM 62.6°F17.0°C 57.4°F14.1°C 83% 6.0 mph S9.7 kmh S 15.0 mph24.1 kmh 29.84 in1010.5 mb 0.00 in0.0 mm 0.00 in0.0 mm 0.00 in0.0 mm
06:12 AM 62.6°F17.0°C 57.4°F14.1°C 83% 5.0 mph S8.0 kmh S 15.0 mph24.1 kmh 29.85 in1010.8 mb 0.00 in0.0 mm 0.00 in0.0 mm 0.00 in0.0 mm
06:14 AM 62.6°F17.0°C 57.7°F14.3°C 84% 2.0 mph SSE3.2 kmh SSE 16.0 mph25.7 kmh 29.84 in1010.5 mb 0.00 in0.0 mm 0.00 in0.0 mm 0.00 in0.0 mm
06:16 AM 62.6°F17.0°C 57.7°F14.3°C 84% 16.0 mph SSE25.7 kmh SSE 16.0 mph25.7 kmh 29.85 in1010.8 mb 0.00 in0.0 mm 0.00 in0.0 mm 0.00 in0.0 mm
06:18 AM 62.6°F17.0°C 57.7°F14.3°C 84% 13.0 mph SE20.9 kmh SE 16.0 mph25.7 kmh 29.85 in1010.8 mb 0.00 in0.0 mm 0.00 in0.0 mm 0.00 in0.0 mm
06:20 AM 62.6°F17.0°C 57.7°F14.3°C 84% 14.0 mph SSE22.5 kmh SSE 16.0 mph25.7 kmh 29.84 in1010.5 mb 0.00 in0.0 mm 0.00 in0.0 mm 0.00 in0.0 mm
06:22 AM 62.6°F17.0°C 57.7°F14.3°C 84% 5.0 mph SSW8.0 kmh SSW 26.0 mph41.8 kmh 29.85 in1010.8 mb 0.00 in0.0 mm 0.00 in0.0 mm 0.00 in0.0 mm
06:24 AM 62.6°F17.0°C 57.4°F14.1°C 83% 9.0 mph S14.5 kmh S 26.0 mph41.8 kmh 29.84 in1010.5 mb 0.00 in0.0 mm 0.00 in0.0 mm 0.00 in0.0 mm
06:26 AM 62.6°F17.0°C 57.7°F14.3°C 84% 8.0 mph SE12.9 kmh SE 26.0 mph41.8 kmh 29.84 in1010.5 mb 0.00 in0.0 mm 0.00 in0.0 mm 0.00 in0.0 mm
06:28 AM 62.6°F17.0°C 57.7°F14.3°C 84% 13.0 mph S20.9 kmh S 26.0 mph41.8 kmh 29.84 in1010.5 mb 0.00 in0.0 mm 0.00 in0.0 mm 0.00 in0.0 mm
06:30 AM 62.6°F17.0°C 57.7°F14.3°C 84% 10.0 mph S16.1 kmh S 26.0 mph41.8 kmh 29.85 in1010.8 mb 0.00 in0.0 mm 0.00 in0.0 mm 0.00 in0.0 mm
06:32 AM 62.6°F17.0°C 57.7°F14.3°C 84% 4.0 mph S6.4 kmh S 26.0 mph41.8 kmh 29.85 in1010.8 mb 0.00 in0.0 mm 0.00 in0.0 mm 0.00 in0.0 mm
06:34 AM 62.7°F17.1°C 57.5°F14.2°C 83% 11.0 mph SE17.7 kmh SE 11.0 mph17.7 kmh 29.84 in1010.5 mb 0.00 in0.0 mm 0.00 in0.0 mm 0.00 in0.0 mm
06:36 AM 62.8°F17.1°C 57.6°F14.2°C 83% 5.0 mph SSE8.0 kmh SSE 18.0 mph29.0 kmh 29.84 in1010.5 mb 0.00 in0.0 mm 0.00 in0.0 mm 0.00 in0.0 mm
06:38 AM 62.8°F17.1°C 57.6°F14.2°C 83% 6.0 mph S9.7 kmh S 18.0 mph29.0 kmh 29.84 in1010.5 mb 0.00 in0.0 mm 0.00 in0.0 mm 0.00 in0.0 mm
06:40 AM 62.8°F17.1°C 57.6°F14.2°C 83% 10.0 mph SE16.1 kmh SE 18.0 mph29.0 kmh 29.84 in1010.5 mb 0.00 in0.0 mm 0.00 in0.0 mm 0.00 in0.0 mm
06:42 AM 62.8°F17.1°C 57.6°F14.2°C 83% 5.0 mph S8.0 kmh S 18.0 mph29.0 kmh 29.84 in1010.5 mb 0.00 in0.0 mm 0.00 in0.0 mm 0.00 in0.0 mm
06:44 AM 62.8°F17.1°C 57.6°F14.2°C 83% 14.0 mph SSE22.5 kmh SSE 18.0 mph29.0 kmh 29.84 in1010.5 mb 0.00 in0.0 mm 0.00 in0.0 mm 0.00 in0.0 mm
06:46 AM 62.8°F17.1°C 57.6°F14.2°C 83% 8.0 mph SSE12.9 kmh SSE 18.0 mph29.0 kmh 29.84 in1010.5 mb 0.00 in0.0 mm 0.00 in0.0 mm 0.00 in0.0 mm
06:48 AM 62.9°F17.2°C 57.7°F14.3°C 83% 6.0 mph SSE9.7 kmh SSE 18.0 mph29.0 kmh 29.84 in1010.5 mb 0.00 in0.0 mm 0.00 in0.0 mm 0.00 in0.0 mm
06:50 AM 62.9°F17.2°C 57.7°F14.3°C 83% 11.0 mph S17.7 kmh S 18.0 mph29.0 kmh 29.85 in1010.8 mb 0.00 in0.0 mm 0.00 in0.0 mm 0.00 in0.0 mm
06:52 AM 62.9°F17.2°C 57.7°F14.3°C 83% 7.0 mph S11.3 kmh S 18.0 mph29.0 kmh 29.85 in1010.8 mb 0.00 in0.0 mm 0.00 in0.0 mm 0.00 in0.0 mm
06:54 AM 63.0°F17.2°C 57.8°F14.3°C 83% 7.0 mph SSE11.3 kmh SSE 18.0 mph29.0 kmh 29.84 in1010.5 mb 0.00 in0.0 mm 0.00 in0.0 mm 0.00 in0.0 mm
06:56 AM 63.0°F17.2°C 57.8°F14.3°C 83% 3.0 mph SE4.8 kmh SE 18.0 mph29.0 kmh 29.84 in1010.5 mb 0.00 in0.0 mm 0.00 in0.0 mm 0.00 in0.0 mm
06:58 AM 63.1°F17.3°C 57.9°F14.4°C 83% 15.0 mph S24.1 kmh S 18.0 mph29.0 kmh 29.85 in1010.8 mb 0.00 in0.0 mm 0.00 in0.0 mm 0.00 in0.0 mm
07:00 AM 63.0°F17.2°C 57.8°F14.3°C 83% 14.0 mph SW22.5 kmh SW 18.0 mph29.0 kmh 29.85 in1010.8 mb 0.00 in0.0 mm 0.00 in0.0 mm 0.00 in0.0 mm
07:02 AM 63.1°F17.3°C 57.9°F14.4°C 83% 5.0 mph S8.0 kmh S 24.0 mph38.6 kmh 29.85 in1010.8 mb 0.00 in0.0 mm 0.00 in0.0 mm 0.00 in0.0 mm
07:04 AM 63.2°F17.3°C 58.0°F14.4°C 83% 11.0 mph S17.7 kmh S 12.0 mph19.3 kmh 29.85 in1010.8 mb 0.00 in0.0 mm 0.00 in0.0 mm 0.00 in0.0 mm
07:06 AM 63.2°F17.3°C 58.0°F14.4°C 83% 9.0 mph SSW14.5 kmh SSW 17.0 mph27.4 kmh 29.85 in1010.8 mb 0.00 in0.0 mm 0.00 in0.0 mm 0.00 in0.0 mm
07:08 AM 63.2°F17.3°C 58.0°F14.4°C 83% 7.0 mph S11.3 kmh S 17.0 mph27.4 kmh 29.85 in1010.8 mb 0.00 in0.0 mm 0.00 in0.0 mm 0.00 in0.0 mm
07:10 AM 63.3°F17.4°C 58.1°F14.5°C 83% 9.0 mph S14.5 kmh S 18.0 mph29.0 kmh 29.85 in1010.8 mb 0.00 in0.0 mm 0.00 in0.0 mm 0.00 in0.0 mm
07:12 AM 63.3°F17.4°C 58.1°F14.5°C 83% 9.0 mph S14.5 kmh S 18.0 mph29.0 kmh 29.85 in1010.8 mb 0.00 in0.0 mm 0.00 in0.0 mm 0.00 in0.0 mm
07:28 AM 63.5°F17.5°C 58.3°F14.6°C 83% 10.0 mph SSE16.1 kmh SSE 18.0 mph29.0 kmh 29.85 in1010.8 mb 0.00 in0.0 mm 0.00 in0.0 mm 0.00 in0.0 mm
07:30 AM 63.6°F17.6°C 58.4°F14.7°C 83% 4.0 mph S6.4 kmh S 18.0 mph29.0 kmh 29.85 in1010.8 mb 0.00 in0.0 mm 0.00 in0.0 mm 0.00 in0.0 mm
07:32 AM 63.6°F17.6°C 58.4°F14.7°C 83% 9.0 mph SSE14.5 kmh SSE 22.0 mph35.4 kmh 29.85 in1010.8 mb 0.00 in0.0 mm 0.00 in0.0 mm 0.00 in0.0 mm
07:34 AM 63.7°F17.6°C 58.1°F14.5°C 82% 7.0 mph S11.3 kmh S 14.0 mph22.5 kmh 29.85 in1010.8 mb 0.00 in0.0 mm 0.00 in0.0 mm 0.00 in0.0 mm
07:36 AM 63.7°F17.6°C 58.1°F14.5°C 82% 5.0 mph SSE8.0 kmh SSE 14.0 mph22.5 kmh 29.85 in1010.8 mb 0.00 in0.0 mm 0.00 in0.0 mm 0.00 in0.0 mm
07:38 AM 63.7°F17.6°C 58.1°F14.5°C 82% 6.0 mph SW9.7 kmh SW 14.0 mph22.5 kmh 29.85 in1010.8 mb 0.00 in0.0 mm 0.00 in0.0 mm 0.00 in0.0 mm
07:40 AM 63.7°F17.6°C 58.1°F14.5°C 82% 16.0 mph S25.7 kmh S 16.0 mph25.7 kmh 29.85 in1010.8 mb 0.00 in0.0 mm 0.00 in0.0 mm 0.00 in0.0 mm
07:42 AM 63.7°F17.6°C 58.1°F14.5°C 82% 4.0 mph S6.4 kmh S 22.0 mph35.4 kmh 29.85 in1010.8 mb 0.00 in0.0 mm 0.00 in0.0 mm 0.00 in0.0 mm
07:44 AM 63.8°F17.7°C 58.2°F14.6°C 82% 10.0 mph S16.1 kmh S 22.0 mph35.4 kmh 29.85 in1010.8 mb 0.00 in0.0 mm 0.00 in0.0 mm 0.00 in0.0 mm
07:46 AM 63.8°F17.7°C 58.2°F14.6°C 82% 6.0 mph SSW9.7 kmh SSW 22.0 mph35.4 kmh 29.85 in1010.8 mb 0.00 in0.0 mm 0.00 in0.0 mm 0.00 in0.0 mm
07:48 AM 63.8°F17.7°C 58.2°F14.6°C 82% 7.0 mph SW11.3 kmh SW 22.0 mph35.4 kmh 29.85 in1010.8 mb 0.00 in0.0 mm 0.00 in0.0 mm 0.00 in0.0 mm
07:50 AM 63.8°F17.7°C 58.2°F14.6°C 82% 12.0 mph S19.3 kmh S 22.0 mph35.4 kmh 29.86 in1011.2 mb 0.00 in0.0 mm 0.00 in0.0 mm 0.00 in0.0 mm
07:52 AM 63.8°F17.7°C 58.2°F14.6°C 82% 5.0 mph S8.0 kmh S 22.0 mph35.4 kmh 29.85 in1010.8 mb 0.00 in0.0 mm 0.00 in0.0 mm 0.00 in0.0 mm
07:54 AM 63.8°F17.7°C 58.2°F14.6°C 82% 10.0 mph S16.1 kmh S 23.0 mph37.0 kmh 29.86 in1011.2 mb 0.00 in0.0 mm 0.00 in0.0 mm 0.00 in0.0 mm
07:56 AM 63.8°F17.7°C 58.2°F14.6°C 82% 13.0 mph S20.9 kmh S 23.0 mph37.0 kmh 29.86 in1011.2 mb 0.00 in0.0 mm 0.00 in0.0 mm 0.00 in0.0 mm
07:58 AM 63.9°F17.7°C 58.3°F14.6°C 82% 5.0 mph S8.0 kmh S 23.0 mph37.0 kmh 29.86 in1011.2 mb 0.00 in0.0 mm 0.00 in0.0 mm 0.00 in0.0 mm
08:00 AM 63.8°F17.7°C 58.2°F14.6°C 82% 11.0 mph S17.7 kmh S 23.0 mph37.0 kmh 29.86 in1011.2 mb 0.00 in0.0 mm 0.00 in0.0 mm 0.00 in0.0 mm
08:02 AM 63.9°F17.7°C 58.3°F14.6°C 82% 8.0 mph S12.9 kmh S 23.0 mph37.0 kmh 29.86 in1011.2 mb 0.00 in0.0 mm 0.00 in0.0 mm 0.00 in0.0 mm
08:04 AM 63.8°F17.7°C 58.2°F14.6°C 82% 12.0 mph SSW19.3 kmh SSW 15.0 mph24.1 kmh 29.86 in1011.2 mb 0.00 in0.0 mm 0.00 in0.0 mm 0.00 in0.0 mm
08:06 AM 63.9°F17.7°C 58.3°F14.6°C 82% 6.0 mph S9.7 kmh S 16.0 mph25.7 kmh 29.86 in1011.2 mb 0.00 in0.0 mm 0.00 in0.0 mm 0.00 in0.0 mm
08:08 AM 63.9°F17.7°C 58.3°F14.6°C 82% 9.0 mph S14.5 kmh S 18.0 mph29.0 kmh 29.86 in1011.2 mb 0.00 in0.0 mm 0.00 in0.0 mm 0.00 in0.0 mm
08:10 AM 63.9°F17.7°C 58.3°F14.6°C 82% 6.0 mph SW9.7 kmh SW 18.0 mph29.0 kmh 29.86 in1011.2 mb 0.00 in0.0 mm 0.00 in0.0 mm 0.00 in0.0 mm
08:12 AM 63.9°F17.7°C 58.3°F14.6°C 82% 7.0 mph S11.3 kmh S 18.0 mph29.0 kmh 29.86 in1011.2 mb 0.00 in0.0 mm 0.00 in0.0 mm 0.00 in0.0 mm
08:14 AM 63.9°F17.7°C 58.3°F14.6°C 82% 15.0 mph SSE24.1 kmh SSE 18.0 mph29.0 kmh 29.86 in1011.2 mb 0.00 in0.0 mm 0.00 in0.0 mm 0.00 in0.0 mm
08:16 AM 64.0°F17.8°C 58.4°F14.7°C 82% 17.0 mph S27.4 kmh S 18.0 mph29.0 kmh 29.86 in1011.2 mb 0.00 in0.0 mm 0.00 in0.0 mm 0.00 in0.0 mm
08:18 AM 64.0°F17.8°C 58.4°F14.7°C 82% 13.0 mph S20.9 kmh S 19.0 mph30.6 kmh 29.86 in1011.2 mb 0.00 in0.0 mm 0.00 in0.0 mm 0.00 in0.0 mm
08:20 AM 63.9°F17.7°C 58.3°F14.6°C 82% 11.0 mph SSE17.7 kmh SSE 19.0 mph30.6 kmh 29.86 in1011.2 mb 0.00 in0.0 mm 0.00 in0.0 mm 0.00 in0.0 mm
08:22 AM 63.9°F17.7°C 58.3°F14.6°C 82% 7.0 mph S11.3 kmh S 19.0 mph30.6 kmh 29.86 in1011.2 mb 0.00 in0.0 mm 0.00 in0.0 mm 0.00 in0.0 mm
08:24 AM 64.0°F17.8°C 58.4°F14.7°C 82% 9.0 mph SE14.5 kmh SE 19.0 mph30.6 kmh 29.86 in1011.2 mb 0.00 in0.0 mm 0.00 in0.0 mm 0.00 in0.0 mm
08:26 AM 64.0°F17.8°C 58.4°F14.7°C 82% 6.0 mph S9.7 kmh S 19.0 mph30.6 kmh 29.86 in1011.2 mb 0.00 in0.0 mm 0.00 in0.0 mm 0.00 in0.0 mm
08:28 AM 64.1°F17.8°C 58.5°F14.7°C 82% 7.0 mph SW11.3 kmh SW 19.0 mph30.6 kmh 29.86 in1011.2 mb 0.00 in0.0 mm 0.00 in0.0 mm 0.00 in0.0 mm
08:30 AM 64.1°F17.8°C 58.5°F14.7°C 82% 9.0 mph SE14.5 kmh SE 19.0 mph30.6 kmh 29.86 in1011.2 mb 0.00 in0.0 mm 0.00 in0.0 mm 0.00 in0.0 mm
08:32 AM 64.2°F17.9°C 58.3°F14.6°C 81% 13.0 mph ESE20.9 kmh ESE 19.0 mph30.6 kmh 29.86 in1011.2 mb 0.00 in0.0 mm 0.00 in0.0 mm 0.00 in0.0 mm
08:34 AM 64.2°F17.9°C 58.3°F14.6°C 81% 11.0 mph S17.7 kmh S 17.0 mph27.4 kmh 29.86 in1011.2 mb 0.00 in0.0 mm 0.00 in0.0 mm 0.00 in0.0 mm
08:35 AM 64.2°F17.9°C 58.3°F14.6°C 81% 8.0 mph SSE12.9 kmh SSE 17.0 mph27.4 kmh 29.86 in1011.2 mb 0.00 in0.0 mm 0.00 in0.0 mm 0.00 in0.0 mm
08:38 AM 64.3°F17.9°C 58.4°F14.7°C 81% 7.0 mph SW11.3 kmh SW 17.0 mph27.4 kmh 29.86 in1011.2 mb 0.00 in0.0 mm 0.00 in0.0 mm 0.00 in0.0 mm
08:40 AM 64.4°F18.0°C 58.5°F14.7°C 81% 12.0 mph S19.3 kmh S 17.0 mph27.4 kmh 29.86 in1011.2 mb 0.00 in0.0 mm 0.00 in0.0 mm 0.00 in0.0 mm
08:41 AM 64.4°F18.0°C 58.5°F14.7°C 81% 6.0 mph SSW9.7 kmh SSW 17.0 mph27.4 kmh 29.86 in1011.2 mb 0.00 in0.0 mm 0.00 in0.0 mm 0.00 in0.0 mm
08:43 AM 64.5°F18.1°C 58.6°F14.8°C 81% 10.0 mph S16.1 kmh S 17.0 mph27.4 kmh 29.86 in1011.2 mb 0.00 in0.0 mm 0.00 in0.0 mm 0.00 in0.0 mm
08:46 AM 64.5°F18.1°C 58.2°F14.6°C 80% 10.0 mph S16.1 kmh S 17.0 mph27.4 kmh 29.86 in1011.2 mb 0.00 in0.0 mm 0.00 in0.0 mm 0.00 in0.0 mm
08:47 AM 64.6°F18.1°C 58.3°F14.6°C 80% 12.0 mph S19.3 kmh S 17.0 mph27.4 kmh 29.86 in1011.2 mb 0.00 in0.0 mm 0.00 in0.0 mm 0.00 in0.0 mm
08:49 AM 64.6°F18.1°C 58.3°F14.6°C 80% 15.0 mph S24.1 kmh S 17.0 mph27.4 kmh 29.86 in1011.2 mb 0.00 in0.0 mm 0.00 in0.0 mm 0.00 in0.0 mm
08:51 AM 64.6°F18.1°C 58.3°F14.6°C 80% 8.0 mph SSE12.9 kmh SSE 17.0 mph27.4 kmh 29.87 in1011.5 mb 0.00 in0.0 mm 0.00 in0.0 mm 0.00 in0.0 mm
08:53 AM 64.6°F18.1°C 58.3°F14.6°C 80% 6.0 mph SSW9.7 kmh SSW 17.0 mph27.4 kmh 29.87 in1011.5 mb 0.00 in0.0 mm 0.00 in0.0 mm 0.00 in0.0 mm
08:55 AM 64.6°F18.1°C 58.3°F14.6°C 80% 16.0 mph S25.7 kmh S 19.0 mph30.6 kmh 29.87 in1011.5 mb 0.00 in0.0 mm 0.00 in0.0 mm 0.00 in0.0 mm
08:58 AM 64.6°F18.1°C 58.3°F14.6°C 80% 7.0 mph SSE11.3 kmh SSE 19.0 mph30.6 kmh 29.87 in1011.5 mb 0.00 in0.0 mm 0.00 in0.0 mm 0.00 in0.0 mm
09:12 AM 65.1°F18.4°C 58.8°F14.9°C 80% 8.0 mph SE12.9 kmh SE 14.0 mph22.5 kmh 29.86 in1011.2 mb 0.00 in0.0 mm 0.00 in0.0 mm 0.00 in0.0 mm
09:14 AM 65.2°F18.4°C 58.9°F14.9°C 80% 6.0 mph S9.7 kmh S 14.0 mph22.5 kmh 29.87 in1011.5 mb 0.00 in0.0 mm 0.00 in0.0 mm 0.00 in0.0 mm
09:16 AM 65.3°F18.5°C 59.0°F15.0°C 80% 16.0 mph S25.7 kmh S 16.0 mph25.7 kmh 29.87 in1011.5 mb 0.00 in0.0 mm 0.00 in0.0 mm 0.00 in0.0 mm
09:18 AM 65.3°F18.5°C 59.0°F15.0°C 80% 10.0 mph SSE16.1 kmh SSE 16.0 mph25.7 kmh 29.87 in1011.5 mb 0.00 in0.0 mm 0.00 in0.0 mm 0.00 in0.0 mm
09:20 AM 65.3°F18.5°C 58.6°F14.8°C 79% 6.0 mph SSE9.7 kmh SSE 16.0 mph25.7 kmh 29.87 in1011.5 mb 0.00 in0.0 mm 0.00 in0.0 mm 0.00 in0.0 mm
09:22 AM 65.4°F18.6°C 58.7°F14.8°C 79% 8.0 mph SSE12.9 kmh SSE 16.0 mph25.7 kmh 29.87 in1011.5 mb 0.00 in0.0 mm 0.00 in0.0 mm 0.00 in0.0 mm
09:24 AM 65.5°F18.6°C 58.8°F14.9°C 79% 15.0 mph S24.1 kmh S 16.0 mph25.7 kmh 29.87 in1011.5 mb 0.00 in0.0 mm 0.00 in0.0 mm 0.00 in0.0 mm
09:40 AM 66.0°F18.9°C 59.0°F15.0°C 78% 9.0 mph S14.5 kmh S 14.0 mph22.5 kmh 29.87 in1011.5 mb 0.00 in0.0 mm 0.00 in0.0 mm 0.00 in0.0 mm
09:42 AM 66.0°F18.9°C 59.0°F15.0°C 78% 7.0 mph E11.3 kmh E 14.0 mph22.5 kmh 29.87 in1011.5 mb 0.00 in0.0 mm 0.00 in0.0 mm 0.00 in0.0 mm
09:44 AM 66.0°F18.9°C 59.0°F15.0°C 78% 5.0 mph S8.0 kmh S 16.0 mph25.7 kmh 29.88 in1011.9 mb 0.00 in0.0 mm 0.00 in0.0 mm 0.00 in0.0 mm
09:46 AM 65.9°F18.8°C 58.9°F14.9°C 78% 2.0 mph E3.2 kmh E 16.0 mph25.7 kmh 29.88 in1011.9 mb 0.00 in0.0 mm 0.00 in0.0 mm 0.00 in0.0 mm
09:48 AM 65.8°F18.8°C 59.1°F15.1°C 79% 3.0 mph SSE4.8 kmh SSE 16.0 mph25.7 kmh 29.88 in1011.9 mb 0.00 in0.0 mm 0.00 in0.0 mm 0.00 in0.0 mm
09:50 AM 65.7°F18.7°C 59.0°F15.0°C 79% 2.0 mph S3.2 kmh S 16.0 mph25.7 kmh 29.87 in1011.5 mb 0.00 in0.0 mm 0.00 in0.0 mm 0.00 in0.0 mm
09:52 AM 65.7°F18.7°C 59.0°F15.0°C 79% 5.0 mph SE8.0 kmh SE 16.0 mph25.7 kmh 29.88 in1011.9 mb 0.00 in0.0 mm 0.00 in0.0 mm 0.00 in0.0 mm
09:54 AM 65.5°F18.6°C 58.8°F14.9°C 79% 7.0 mph S11.3 kmh S 16.0 mph25.7 kmh 29.87 in1011.5 mb 0.00 in0.0 mm 0.00 in0.0 mm 0.00 in0.0 mm
09:56 AM 65.5°F18.6°C 59.2°F15.1°C 80% 3.0 mph SSE4.8 kmh SSE 16.0 mph25.7 kmh 29.88 in1011.9 mb 0.00 in0.0 mm 0.00 in0.0 mm 0.00 in0.0 mm
09:58 AM 65.5°F18.6°C 59.2°F15.1°C 80% 9.0 mph SW14.5 kmh SW 16.0 mph25.7 kmh 29.88 in1011.9 mb 0.00 in0.0 mm 0.00 in0.0 mm 0.00 in0.0 mm
10:00 AM 65.6°F18.7°C 59.3°F15.2°C 80% 12.0 mph SSW19.3 kmh SSW 22.0 mph35.4 kmh 29.88 in1011.9 mb 0.00 in0.0 mm 0.00 in0.0 mm 0.00 in0.0 mm
10:02 AM 65.8°F18.8°C 59.1°F15.1°C 79% 6.0 mph S9.7 kmh S 22.0 mph35.4 kmh 29.87 in1011.5 mb 0.00 in0.0 mm 0.00 in0.0 mm 0.00 in0.0 mm
10:04 AM 65.9°F18.8°C 59.2°F15.1°C 79% 7.0 mph SSW11.3 kmh SSW 15.0 mph24.1 kmh 29.87 in1011.5 mb 0.00 in0.0 mm 0.00 in0.0 mm 0.00 in0.0 mm
10:06 AM 65.9°F18.8°C 59.2°F15.1°C 79% 5.0 mph S8.0 kmh S 15.0 mph24.1 kmh 29.87 in1011.5 mb 0.00 in0.0 mm 0.00 in0.0 mm 0.00 in0.0 mm
10:08 AM 65.9°F18.8°C 59.2°F15.1°C 79% 3.0 mph SE4.8 kmh SE 15.0 mph24.1 kmh 29.86 in1011.2 mb 0.00 in0.0 mm 0.00 in0.0 mm 0.00 in0.0 mm
10:09 AM 66.0°F18.9°C 59.3°F15.2°C 79% 7.0 mph SE11.3 kmh SE 15.0 mph24.1 kmh 29.86 in1011.2 mb 0.00 in0.0 mm 0.00 in0.0 mm 0.00 in0.0 mm
10:12 AM 65.9°F18.8°C 59.2°F15.1°C 79% 13.0 mph SE20.9 kmh SE 15.0 mph24.1 kmh 29.86 in1011.2 mb 0.00 in0.0 mm 0.00 in0.0 mm 0.00 in0.0 mm
10:14 AM 65.9°F18.8°C 59.2°F15.1°C 79% 9.0 mph SE14.5 kmh SE 15.0 mph24.1 kmh 29.86 in1011.2 mb 0.00 in0.0 mm 0.00 in0.0 mm 0.00 in0.0 mm
10:16 AM 65.8°F18.8°C 59.1°F15.1°C 79% 1.0 mph SE1.6 kmh SE 15.0 mph24.1 kmh 29.87 in1011.5 mb 0.00 in0.0 mm 0.00 in0.0 mm 0.00 in0.0 mm
10:18 AM 65.7°F18.7°C 59.4°F15.2°C 80% 4.0 mph SE6.4 kmh SE 15.0 mph24.1 kmh 29.87 in1011.5 mb 0.00 in0.0 mm 0.00 in0.0 mm 0.00 in0.0 mm
10:20 AM 65.7°F18.7°C 59.4°F15.2°C 80% 10.0 mph S16.1 kmh S 15.0 mph24.1 kmh 29.86 in1011.2 mb 0.00 in0.0 mm 0.00 in0.0 mm 0.00 in0.0 mm
10:22 AM 65.6°F18.7°C 59.3°F15.2°C 80% 7.0 mph SSE11.3 kmh SSE 15.0 mph24.1 kmh 29.86 in1011.2 mb 0.00 in0.0 mm 0.00 in0.0 mm 0.00 in0.0 mm
10:24 AM 65.6°F18.7°C 59.3°F15.2°C 80% 3.0 mph S4.8 kmh S 15.0 mph24.1 kmh 29.86 in1011.2 mb 0.00 in0.0 mm 0.00 in0.0 mm 0.00 in0.0 mm
10:26 AM 65.5°F18.6°C 59.2°F15.1°C 80% 3.0 mph SSE4.8 kmh SSE 15.0 mph24.1 kmh 29.86 in1011.2 mb 0.00 in0.0 mm 0.00 in0.0 mm 0.00 in0.0 mm
10:28 AM 65.3°F18.5°C 59.0°F15.0°C 80% 6.0 mph SE9.7 kmh SE 15.0 mph24.1 kmh 29.86 in1011.2 mb 0.00 in0.0 mm 0.00 in0.0 mm 0.00 in0.0 mm
10:41 AM 65.3°F18.5°C 59.7°F15.4°C 82% 8.0 mph SE12.9 kmh SE 8.0 mph12.9 kmh 29.87 in1011.5 mb 0.00 in0.0 mm 0.00 in0.0 mm 0.00 in0.0 mm
10:42 AM 65.3°F18.5°C 59.7°F15.4°C 82% 3.0 mph SW4.8 kmh SW 8.0 mph12.9 kmh 29.87 in1011.5 mb 0.00 in0.0 mm 0.00 in0.0 mm 0.00 in0.0 mm
10:44 AM 65.3°F18.5°C 59.7°F15.4°C 82% 5.0 mph S8.0 kmh S 8.0 mph12.9 kmh 29.87 in1011.5 mb 0.00 in0.0 mm 0.00 in0.0 mm 0.00 in0.0 mm
10:46 AM 65.3°F18.5°C 59.7°F15.4°C 82% 8.0 mph SSW12.9 kmh SSW 11.0 mph17.7 kmh 29.87 in1011.5 mb 0.00 in0.0 mm 0.00 in0.0 mm 0.00 in0.0 mm
10:48 AM 65.4°F18.6°C 59.4°F15.2°C 81% 6.0 mph SW9.7 kmh SW 13.0 mph20.9 kmh 29.87 in1011.5 mb 0.00 in0.0 mm 0.00 in0.0 mm 0.00 in0.0 mm
10:50 AM 65.5°F18.6°C 59.5°F15.3°C 81% 4.0 mph SSW6.4 kmh SSW 13.0 mph20.9 kmh 29.87 in1011.5 mb 0.00 in0.0 mm 0.00 in0.0 mm 0.00 in0.0 mm
10:52 AM 65.6°F18.7°C 59.6°F15.3°C 81% 6.0 mph SW9.7 kmh SW 13.0 mph20.9 kmh 29.87 in1011.5 mb 0.00 in0.0 mm 0.00 in0.0 mm 0.00 in0.0 mm
10:54 AM 65.7°F18.7°C 59.7°F15.4°C 81% 11.0 mph S17.7 kmh S 13.0 mph20.9 kmh 29.87 in1011.5 mb 0.00 in0.0 mm 0.00 in0.0 mm 0.00 in0.0 mm
10:56 AM 65.9°F18.8°C 59.9°F15.5°C 81% 6.0 mph S9.7 kmh S 13.0 mph20.9 kmh 29.86 in1011.2 mb 0.00 in0.0 mm 0.00 in0.0 mm 0.00 in0.0 mm
10:58 AM 65.9°F18.8°C 59.9°F15.5°C 81% 8.0 mph S12.9 kmh S 13.0 mph20.9 kmh 29.86 in1011.2 mb 0.00 in0.0 mm 0.00 in0.0 mm 0.00 in0.0 mm
11:00 AM 66.0°F18.9°C 60.0°F15.6°C 81% 9.0 mph SSW14.5 kmh SSW 13.0 mph20.9 kmh 29.85 in1010.8 mb 0.00 in0.0 mm 0.00 in0.0 mm 0.00 in0.0 mm
11:02 AM 66.2°F19.0°C 60.2°F15.7°C 81% 5.0 mph S8.0 kmh S 13.0 mph20.9 kmh 29.85 in1010.8 mb 0.00 in0.0 mm 0.00 in0.0 mm 0.00 in0.0 mm
11:04 AM 66.3°F19.1°C 60.0°F15.6°C 80% 12.0 mph E19.3 kmh E 16.0 mph25.7 kmh 29.85 in1010.8 mb 0.00 in0.0 mm 0.00 in0.0 mm 0.00 in0.0 mm
11:06 AM 66.4°F19.1°C 60.1°F15.6°C 80% 14.0 mph SSE22.5 kmh SSE 16.0 mph25.7 kmh 29.85 in1010.8 mb 0.00 in0.0 mm 0.00 in0.0 mm 0.00 in0.0 mm
11:08 AM 66.6°F19.2°C 60.3°F15.7°C 80% 14.0 mph S22.5 kmh S 16.0 mph25.7 kmh 29.85 in1010.8 mb 0.00 in0.0 mm 0.00 in0.0 mm 0.00 in0.0 mm
11:10 AM 66.7°F19.3°C 60.3°F15.7°C 80% 10.0 mph SSE16.1 kmh SSE 16.0 mph25.7 kmh 29.85 in1010.8 mb 0.00 in0.0 mm 0.00 in0.0 mm 0.00 in0.0 mm
11:12 AM 66.8°F19.3°C 60.4°F15.8°C 80% 13.0 mph SE20.9 kmh SE 16.0 mph25.7 kmh 29.84 in1010.5 mb 0.00 in0.0 mm 0.00 in0.0 mm 0.00 in0.0 mm
11:14 AM 66.9°F19.4°C 60.5°F15.8°C 80% 4.0 mph S6.4 kmh S 16.0 mph25.7 kmh 29.84 in1010.5 mb 0.00 in0.0 mm 0.00 in0.0 mm 0.00 in0.0 mm
11:29 AM 67.3°F19.6°C 60.6°F15.9°C 79% 13.0 mph SE20.9 kmh SE 24.0 mph38.6 kmh 29.83 in1010.2 mb 0.00 in0.0 mm 0.00 in0.0 mm 0.00 in0.0 mm
11:30 AM 67.3°F19.6°C 60.6°F15.9°C 79% 22.0 mph SSE35.4 kmh SSE 24.0 mph38.6 kmh 29.83 in1010.2 mb 0.00 in0.0 mm 0.00 in0.0 mm 0.00 in0.0 mm
11:32 AM 67.3°F19.6°C 60.6°F15.9°C 79% 11.0 mph S17.7 kmh S 24.0 mph38.6 kmh 29.83 in1010.2 mb 0.00 in0.0 mm 0.00 in0.0 mm 0.00 in0.0 mm
11:34 AM 67.3°F19.6°C 60.6°F15.9°C 79% 14.0 mph SSE22.5 kmh SSE 21.0 mph33.8 kmh 29.83 in1010.2 mb 0.00 in0.0 mm 0.00 in0.0 mm 0.00 in0.0 mm
11:36 AM 67.5°F19.7°C 60.4°F15.8°C 78% 13.0 mph S20.9 kmh S 21.0 mph33.8 kmh 29.82 in1009.8 mb 0.00 in0.0 mm 0.00 in0.0 mm 0.00 in0.0 mm
11:38 AM 67.5°F19.7°C 60.4°F15.8°C 78% 6.0 mph SSE9.7 kmh SSE 21.0 mph33.8 kmh 29.82 in1009.8 mb 0.00 in0.0 mm 0.00 in0.0 mm 0.00 in0.0 mm
11:40 AM 67.6°F19.8°C 60.5°F15.8°C 78% 19.0 mph SSE30.6 kmh SSE 21.0 mph33.8 kmh 29.82 in1009.8 mb 0.00 in0.0 mm 0.00 in0.0 mm 0.00 in0.0 mm
11:42 AM 67.7°F19.8°C 60.6°F15.9°C 78% 8.0 mph S12.9 kmh S 21.0 mph33.8 kmh 29.82 in1009.8 mb 0.00 in0.0 mm 0.00 in0.0 mm 0.00 in0.0 mm
11:44 AM 67.6°F19.8°C 60.5°F15.8°C 78% 14.0 mph S22.5 kmh S 23.0 mph37.0 kmh 29.82 in1009.8 mb 0.00 in0.0 mm 0.00 in0.0 mm 0.00 in0.0 mm
11:46 AM 67.6°F19.8°C 60.5°F15.8°C 78% 13.0 mph S20.9 kmh S 23.0 mph37.0 kmh 29.82 in1009.8 mb 0.00 in0.0 mm 0.00 in0.0 mm 0.00 in0.0 mm
11:48 AM 67.7°F19.8°C 60.6°F15.9°C 78% 9.0 mph S14.5 kmh S 23.0 mph37.0 kmh 29.81 in1009.5 mb 0.00 in0.0 mm 0.00 in0.0 mm 0.00 in0.0 mm
11:50 AM 67.7°F19.8°C 60.6°F15.9°C 78% 12.0 mph SSE19.3 kmh SSE 23.0 mph37.0 kmh 29.81 in1009.5 mb 0.00 in0.0 mm 0.00 in0.0 mm 0.00 in0.0 mm
11:52 AM 67.8°F19.9°C 60.7°F15.9°C 78% 9.0 mph SSW14.5 kmh SSW 29.0 mph46.7 kmh 29.81 in1009.5 mb 0.00 in0.0 mm 0.00 in0.0 mm 0.00 in0.0 mm
11:54 AM 67.8°F19.9°C 60.7°F15.9°C 78% 9.0 mph S14.5 kmh S 29.0 mph46.7 kmh 29.81 in1009.5 mb 0.00 in0.0 mm 0.00 in0.0 mm 0.00 in0.0 mm
11:56 AM 68.0°F20.0°C 60.9°F16.1°C 78% 6.0 mph S9.7 kmh S 29.0 mph46.7 kmh 29.81 in1009.5 mb 0.00 in0.0 mm 0.00 in0.0 mm 0.00 in0.0 mm
11:58 AM 68.0°F20.0°C 60.5°F15.8°C 77% 6.0 mph SW9.7 kmh SW 29.0 mph46.7 kmh 29.81 in1009.5 mb 0.00 in0.0 mm 0.00 in0.0 mm 0.00 in0.0 mm
12:00 PM 68.2°F20.1°C 60.7°F15.9°C 77% 9.0 mph SW14.5 kmh SW 29.0 mph46.7 kmh 29.80 in1009.1 mb 0.00 in0.0 mm 0.00 in0.0 mm 0.00 in0.0 mm
12:02 PM 68.4°F20.2°C 60.9°F16.1°C 77% 15.0 mph S24.1 kmh S 29.0 mph46.7 kmh 29.81 in1009.5 mb 0.00 in0.0 mm 0.00 in0.0 mm 0.00 in0.0 mm
12:04 PM 68.4°F20.2°C 60.9°F16.1°C 77% 9.0 mph SSW14.5 kmh SSW 19.0 mph30.6 kmh 29.81 in1009.5 mb 0.00 in0.0 mm 0.00 in0.0 mm 0.00 in0.0 mm
12:06 PM 68.5°F20.3°C 61.0°F16.1°C 77% 4.0 mph SSE6.4 kmh SSE 19.0 mph30.6 kmh 29.81 in1009.5 mb 0.00 in0.0 mm 0.00 in0.0 mm 0.00 in0.0 mm
12:08 PM 68.5°F20.3°C 61.0°F16.1°C 77% 13.0 mph S20.9 kmh S 21.0 mph33.8 kmh 29.81 in1009.5 mb 0.00 in0.0 mm 0.00 in0.0 mm 0.00 in0.0 mm
12:10 PM 68.6°F20.3°C 60.7°F15.9°C 76% 7.0 mph S11.3 kmh S 21.0 mph33.8 kmh 29.81 in1009.5 mb 0.00 in0.0 mm 0.00 in0.0 mm 0.00 in0.0 mm
12:12 PM 68.7°F20.4°C 60.8°F16.0°C 76% 10.0 mph SE16.1 kmh SE 22.0 mph35.4 kmh 29.81 in1009.5 mb 0.00 in0.0 mm 0.00 in0.0 mm 0.00 in0.0 mm
12:14 PM 68.8°F20.4°C 60.9°F16.1°C 76% 22.0 mph S35.4 kmh S 22.0 mph35.4 kmh 29.81 in1009.5 mb 0.00 in0.0 mm 0.00 in0.0 mm 0.00 in0.0 mm
12:16 PM 68.8°F20.4°C 60.9°F16.1°C 76% 19.0 mph S30.6 kmh S 22.0 mph35.4 kmh 29.81 in1009.5 mb 0.00 in0.0 mm 0.00 in0.0 mm 0.00 in0.0 mm
12:18 PM 68.8°F20.4°C 60.9°F16.1°C 76% 11.0 mph SE17.7 kmh SE 24.0 mph38.6 kmh 29.80 in1009.1 mb 0.00 in0.0 mm 0.00 in0.0 mm 0.00 in0.0 mm
12:20 PM 68.9°F20.5°C 61.0°F16.1°C 76% 21.0 mph S33.8 kmh S 24.0 mph38.6 kmh 29.80 in1009.1 mb 0.00 in0.0 mm 0.00 in0.0 mm 0.00 in0.0 mm
12:22 PM 68.9°F20.5°C 61.0°F16.1°C 76% 10.0 mph SE16.1 kmh SE 25.0 mph40.2 kmh 29.80 in1009.1 mb 0.00 in0.0 mm 0.00 in0.0 mm 0.00 in0.0 mm
12:24 PM 69.0°F20.6°C 61.1°F16.2°C 76% 10.0 mph S16.1 kmh S 25.0 mph40.2 kmh 29.80 in1009.1 mb 0.00 in0.0 mm 0.00 in0.0 mm 0.00 in0.0 mm
12:26 PM 69.1°F20.6°C 61.2°F16.2°C 76% 14.0 mph SE22.5 kmh SE 25.0 mph40.2 kmh 29.80 in1009.1 mb 0.00 in0.0 mm 0.00 in0.0 mm 0.00 in0.0 mm
12:28 PM 69.1°F20.6°C 60.9°F16.1°C 75% 11.0 mph S17.7 kmh S 25.0 mph40.2 kmh 29.80 in1009.1 mb 0.00 in0.0 mm 0.00 in0.0 mm 0.00 in0.0 mm
12:30 PM 69.2°F20.7°C 61.0°F16.1°C 75% 9.0 mph S14.5 kmh S 25.0 mph40.2 kmh 29.80 in1009.1 mb 0.00 in0.0 mm 0.00 in0.0 mm 0.00 in0.0 mm
12:32 PM 69.3°F20.7°C 61.0°F16.1°C 75% 10.0 mph SSW16.1 kmh SSW 25.0 mph40.2 kmh 29.79 in1008.8 mb 0.00 in0.0 mm 0.00 in0.0 mm 0.00 in0.0 mm
12:34 PM 69.4°F20.8°C 61.1°F16.2°C 75% 11.0 mph SSW17.7 kmh SSW 19.0 mph30.6 kmh 29.79 in1008.8 mb 0.00 in0.0 mm 0.00 in0.0 mm 0.00 in0.0 mm
12:36 PM 69.5°F20.8°C 61.2°F16.2°C 75% 11.0 mph SSE17.7 kmh SSE 21.0 mph33.8 kmh 29.79 in1008.8 mb 0.00 in0.0 mm 0.00 in0.0 mm 0.00 in0.0 mm
12:38 PM 69.6°F20.9°C 61.3°F16.3°C 75% 11.0 mph SE17.7 kmh SE 34.0 mph54.7 kmh 29.79 in1008.8 mb 0.00 in0.0 mm 0.00 in0.0 mm 0.00 in0.0 mm
12:40 PM 69.6°F20.9°C 61.3°F16.3°C 75% 4.0 mph S6.4 kmh S 34.0 mph54.7 kmh 29.79 in1008.8 mb 0.00 in0.0 mm 0.00 in0.0 mm 0.00 in0.0 mm
12:42 PM 69.6°F20.9°C 61.3°F16.3°C 75% 9.0 mph SE14.5 kmh SE 34.0 mph54.7 kmh 29.80 in1009.1 mb 0.00 in0.0 mm 0.00 in0.0 mm 0.00 in0.0 mm
12:44 PM 69.6°F20.9°C 61.3°F16.3°C 75% 12.0 mph SSW19.3 kmh SSW 34.0 mph54.7 kmh 29.79 in1008.8 mb 0.00 in0.0 mm 0.00 in0.0 mm 0.00 in0.0 mm
12:46 PM 69.6°F20.9°C 61.3°F16.3°C 75% 6.0 mph S9.7 kmh S 34.0 mph54.7 kmh 29.78 in1008.5 mb 0.00 in0.0 mm 0.00 in0.0 mm 0.00 in0.0 mm
12:48 PM 69.7°F20.9°C 61.4°F16.3°C 75% 5.0 mph SE8.0 kmh SE 34.0 mph54.7 kmh 29.77 in1008.1 mb 0.00 in0.0 mm 0.00 in0.0 mm 0.00 in0.0 mm
12:50 PM 69.8°F21.0°C 61.5°F16.4°C 75% 16.0 mph S25.7 kmh S 34.0 mph54.7 kmh 29.77 in1008.1 mb 0.00 in0.0 mm 0.00 in0.0 mm 0.00 in0.0 mm
12:52 PM 69.9°F21.1°C 61.6°F16.4°C 75% 11.0 mph SE17.7 kmh SE 34.0 mph54.7 kmh 29.78 in1008.5 mb 0.00 in0.0 mm 0.00 in0.0 mm 0.00 in0.0 mm
12:54 PM 70.0°F21.1°C 61.7°F16.5°C 75% 9.0 mph SE14.5 kmh SE 34.0 mph54.7 kmh 29.77 in1008.1 mb 0.00 in0.0 mm 0.00 in0.0 mm 0.00 in0.0 mm
12:56 PM 70.1°F21.2°C 61.4°F16.3°C 74% 15.0 mph S24.1 kmh S 34.0 mph54.7 kmh 29.77 in1008.1 mb 0.00 in0.0 mm 0.00 in0.0 mm 0.00 in0.0 mm
12:58 PM 70.1°F21.2°C 61.4°F16.3°C 74% 11.0 mph S17.7 kmh S 34.0 mph54.7 kmh 29.76 in1007.8 mb 0.00 in0.0 mm 0.00 in0.0 mm 0.00 in0.0 mm
01:00 PM 70.2°F21.2°C 61.5°F16.4°C 74% 6.0 mph SSW9.7 kmh SSW 34.0 mph54.7 kmh 29.77 in1008.1 mb 0.00 in0.0 mm 0.00 in0.0 mm 0.00 in0.0 mm
01:02 PM 70.3°F21.3°C 61.6°F16.4°C 74% 8.0 mph SSW12.9 kmh SSW 34.0 mph54.7 kmh 29.77 in1008.1 mb 0.00 in0.0 mm 0.00 in0.0 mm 0.00 in0.0 mm
01:04 PM 70.4°F21.3°C 61.3°F16.3°C 73% 11.0 mph S17.7 kmh S 19.0 mph30.6 kmh 29.77 in1008.1 mb 0.00 in0.0 mm 0.00 in0.0 mm 0.00 in0.0 mm
01:06 PM 70.4°F21.3°C 61.3°F16.3°C 73% 18.0 mph S29.0 kmh S 28.0 mph45.1 kmh 29.77 in1008.1 mb 0.00 in0.0 mm 0.00 in0.0 mm 0.00 in0.0 mm
01:08 PM 70.5°F21.4°C 61.4°F16.3°C 73% 17.0 mph SE27.4 kmh SE 28.0 mph45.1 kmh 29.78 in1008.5 mb 0.00 in0.0 mm 0.00 in0.0 mm 0.00 in0.0 mm
01:10 PM 70.6°F21.4°C 61.5°F16.4°C 73% 9.0 mph SSW14.5 kmh SSW 28.0 mph45.1 kmh 29.78 in1008.5 mb 0.00 in0.0 mm 0.00 in0.0 mm 0.00 in0.0 mm
01:12 PM 70.7°F21.5°C 61.2°F16.2°C 72% 12.0 mph S19.3 kmh S 28.0 mph45.1 kmh 29.78 in1008.5 mb 0.00 in0.0 mm 0.00 in0.0 mm 0.00 in0.0 mm
01:14 PM 70.7°F21.5°C 61.2°F16.2°C 72% 13.0 mph S20.9 kmh S 28.0 mph45.1 kmh 29.78 in1008.5 mb 0.00 in0.0 mm 0.00 in0.0 mm 0.00 in0.0 mm
01:16 PM 70.8°F21.6°C 61.3°F16.3°C 72% 11.0 mph SE17.7 kmh SE 28.0 mph45.1 kmh 29.78 in1008.5 mb 0.00 in0.0 mm 0.00 in0.0 mm 0.00 in0.0 mm
01:18 PM 71.0°F21.7°C 61.5°F16.4°C 72% 12.0 mph SSW19.3 kmh SSW 28.0 mph45.1 kmh 29.77 in1008.1 mb 0.00 in0.0 mm 0.00 in0.0 mm 0.00 in0.0 mm
01:20 PM 71.1°F21.7°C 61.2°F16.2°C 71% 13.0 mph SSE20.9 kmh SSE 28.0 mph45.1 kmh 29.77 in1008.1 mb 0.00 in0.0 mm 0.00 in0.0 mm 0.00 in0.0 mm
01:22 PM 71.3°F21.8°C 61.4°F16.3°C 71% 14.0 mph S22.5 kmh S 28.0 mph45.1 kmh 29.77 in1008.1 mb 0.00 in0.0 mm 0.00 in0.0 mm 0.00 in0.0 mm
01:24 PM 71.5°F21.9°C 61.2°F16.2°C 70% 22.0 mph S35.4 kmh S 28.0 mph45.1 kmh 29.77 in1008.1 mb 0.00 in0.0 mm 0.00 in0.0 mm 0.00 in0.0 mm
01:26 PM 71.6°F22.0°C 61.3°F16.3°C 70% 19.0 mph SSE30.6 kmh SSE 28.0 mph45.1 kmh 29.77 in1008.1 mb 0.00 in0.0 mm 0.00 in0.0 mm 0.00 in0.0 mm
01:28 PM 71.8°F22.1°C 61.5°F16.4°C 70% 7.0 mph SW11.3 kmh SW 29.0 mph46.7 kmh 29.77 in1008.1 mb 0.00 in0.0 mm 0.00 in0.0 mm 0.00 in0.0 mm
01:30 PM 71.8°F22.1°C 61.5°F16.4°C 70% 16.0 mph S25.7 kmh S 29.0 mph46.7 kmh 29.77 in1008.1 mb 0.00 in0.0 mm 0.00 in0.0 mm 0.00 in0.0 mm
01:32 PM 71.9°F22.2°C 61.2°F16.2°C 69% 11.0 mph SW17.7 kmh SW 29.0 mph46.7 kmh 29.78 in1008.5 mb 0.00 in0.0 mm 0.00 in0.0 mm 0.00 in0.0 mm
01:34 PM 71.9°F22.2°C 61.2°F16.2°C 69% 13.0 mph SSW20.9 kmh SSW 21.0 mph33.8 kmh 29.78 in1008.5 mb 0.00 in0.0 mm 0.00 in0.0 mm 0.00 in0.0 mm
01:36 PM 72.0°F22.2°C 61.3°F16.3°C 69% 16.0 mph S25.7 kmh S 23.0 mph37.0 kmh 29.78 in1008.5 mb 0.00 in0.0 mm 0.00 in0.0 mm 0.00 in0.0 mm
01:38 PM 72.1°F22.3°C 61.4°F16.3°C 69% 14.0 mph S22.5 kmh S 23.0 mph37.0 kmh 29.78 in1008.5 mb 0.00 in0.0 mm 0.00 in0.0 mm 0.00 in0.0 mm
01:40 PM 72.1°F22.3°C 61.4°F16.3°C 69% 5.0 mph S8.0 kmh S 23.0 mph37.0 kmh 29.77 in1008.1 mb 0.00 in0.0 mm 0.00 in0.0 mm 0.00 in0.0 mm
01:42 PM 72.2°F22.3°C 61.1°F16.2°C 68% 6.0 mph S9.7 kmh S 23.0 mph37.0 kmh 29.77 in1008.1 mb 0.00 in0.0 mm 0.00 in0.0 mm 0.00 in0.0 mm
01:44 PM 72.3°F22.4°C 61.2°F16.2°C 68% 17.0 mph SSW27.4 kmh SSW 23.0 mph37.0 kmh 29.77 in1008.1 mb 0.00 in0.0 mm 0.00 in0.0 mm 0.00 in0.0 mm
01:46 PM 72.4°F22.4°C 61.3°F16.3°C 68% 21.0 mph S33.8 kmh S 23.0 mph37.0 kmh 29.77 in1008.1 mb 0.00 in0.0 mm 0.00 in0.0 mm 0.00 in0.0 mm
01:48 PM 72.4°F22.4°C 60.8°F16.0°C 67% 13.0 mph S20.9 kmh S 23.0 mph37.0 kmh 29.77 in1008.1 mb 0.00 in0.0 mm 0.00 in0.0 mm 0.00 in0.0 mm
01:50 PM 72.4°F22.4°C 60.8°F16.0°C 67% 18.0 mph S29.0 kmh S 23.0 mph37.0 kmh 29.77 in1008.1 mb 0.00 in0.0 mm 0.00 in0.0 mm 0.00 in0.0 mm
01:52 PM 72.4°F22.4°C 60.8°F16.0°C 67% 15.0 mph S24.1 kmh S 23.0 mph37.0 kmh 29.77 in1008.1 mb 0.00 in0.0 mm 0.00 in0.0 mm 0.00 in0.0 mm
01:54 PM 72.3°F22.4°C 60.7°F15.9°C 67% 18.0 mph SE29.0 kmh SE 24.0 mph38.6 kmh 29.76 in1007.8 mb 0.00 in0.0 mm 0.00 in0.0 mm 0.00 in0.0 mm
01:56 PM 72.3°F22.4°C 60.7°F15.9°C 67% 19.0 mph S30.6 kmh S 27.0 mph43.5 kmh 29.76 in1007.8 mb 0.00 in0.0 mm 0.00 in0.0 mm 0.00 in0.0 mm
01:58 PM 72.4°F22.4°C 60.8°F16.0°C 67% 14.0 mph S22.5 kmh S 27.0 mph43.5 kmh 29.76 in1007.8 mb 0.00 in0.0 mm 0.00 in0.0 mm 0.00 in0.0 mm
02:00 PM 72.4°F22.4°C 61.3°F16.3°C 68% 10.0 mph S16.1 kmh S 27.0 mph43.5 kmh 29.76 in1007.8 mb 0.00 in0.0 mm 0.00 in0.0 mm 0.00 in0.0 mm
02:02 PM 72.5°F22.5°C 61.4°F16.3°C 68% 13.0 mph S20.9 kmh S 27.0 mph43.5 kmh 29.76 in1007.8 mb 0.00 in0.0 mm 0.00 in0.0 mm 0.00 in0.0 mm
02:03 PM 72.5°F22.5°C 60.9°F16.1°C 67% 9.0 mph SSW14.5 kmh SSW 24.0 mph38.6 kmh 29.76 in1007.8 mb 0.00 in0.0 mm 0.00 in0.0 mm 0.00 in0.0 mm
02:06 PM 72.5°F22.5°C 60.9°F16.1°C 67% 15.0 mph S24.1 kmh S 26.0 mph41.8 kmh 29.75 in1007.5 mb 0.00 in0.0 mm 0.00 in0.0 mm 0.00 in0.0 mm
02:08 PM 72.6°F22.6°C 61.0°F16.1°C 67% 12.0 mph SSW19.3 kmh SSW 26.0 mph41.8 kmh 29.75 in1007.5 mb 0.00 in0.0 mm 0.00 in0.0 mm 0.00 in0.0 mm
02:10 PM 72.7°F22.6°C 61.1°F16.2°C 67% 11.0 mph SE17.7 kmh SE 26.0 mph41.8 kmh 29.75 in1007.5 mb 0.00 in0.0 mm 0.00 in0.0 mm 0.00 in0.0 mm
02:12 PM 72.8°F22.7°C 60.8°F16.0°C 66% 19.0 mph SSE30.6 kmh SSE 26.0 mph41.8 kmh 29.75 in1007.5 mb 0.00 in0.0 mm 0.00 in0.0 mm 0.00 in0.0 mm
02:14 PM 73.1°F22.8°C 61.1°F16.2°C 66% 3.0 mph S4.8 kmh S 26.0 mph41.8 kmh 29.76 in1007.8 mb 0.00 in0.0 mm 0.00 in0.0 mm 0.00 in0.0 mm
02:16 PM 73.1°F22.8°C 61.1°F16.2°C 66% 11.0 mph S17.7 kmh S 26.0 mph41.8 kmh 29.76 in1007.8 mb 0.00 in0.0 mm 0.00 in0.0 mm 0.00 in0.0 mm
02:18 PM 73.3°F22.9°C 61.3°F16.3°C 66% 18.0 mph S29.0 kmh S 26.0 mph41.8 kmh 29.76 in1007.8 mb 0.00 in0.0 mm 0.00 in0.0 mm 0.00 in0.0 mm
02:20 PM 73.4°F23.0°C 60.9°F16.1°C 65% 21.0 mph S33.8 kmh S 29.0 mph46.7 kmh 29.76 in1007.8 mb 0.00 in0.0 mm 0.00 in0.0 mm 0.00 in0.0 mm
02:22 PM 73.5°F23.1°C 61.0°F16.1°C 65% 26.0 mph SE41.8 kmh SE 32.0 mph51.5 kmh 29.76 in1007.8 mb 0.00 in0.0 mm 0.00 in0.0 mm 0.00 in0.0 mm
02:24 PM 73.4°F23.0°C 60.9°F16.1°C 65% 25.0 mph S40.2 kmh S 32.0 mph51.5 kmh 29.76 in1007.8 mb 0.00 in0.0 mm 0.00 in0.0 mm 0.00 in0.0 mm
02:26 PM 73.4°F23.0°C 60.9°F16.1°C 65% 20.0 mph SW32.2 kmh SW 32.0 mph51.5 kmh 29.76 in1007.8 mb 0.00 in0.0 mm 0.00 in0.0 mm 0.00 in0.0 mm
02:28 PM 73.5°F23.1°C 61.0°F16.1°C 65% 14.0 mph S22.5 kmh S 32.0 mph51.5 kmh 29.75 in1007.5 mb 0.00 in0.0 mm 0.00 in0.0 mm 0.00 in0.0 mm
02:30 PM 73.6°F23.1°C 61.1°F16.2°C 65% 15.0 mph S24.1 kmh S 32.0 mph51.5 kmh 29.76 in1007.8 mb 0.00 in0.0 mm 0.00 in0.0 mm 0.00 in0.0 mm
02:32 PM 73.6°F23.1°C 61.1°F16.2°C 65% 19.0 mph SW30.6 kmh SW 32.0 mph51.5 kmh 29.75 in1007.5 mb 0.00 in0.0 mm 0.00 in0.0 mm 0.00 in0.0 mm
02:34 PM 73.6°F23.1°C 61.1°F16.2°C 65% 8.0 mph WSW12.9 kmh WSW 30.0 mph48.3 kmh 29.75 in1007.5 mb 0.00 in0.0 mm 0.00 in0.0 mm 0.00 in0.0 mm
02:36 PM 73.6°F23.1°C 61.1°F16.2°C 65% 14.0 mph S22.5 kmh S 30.0 mph48.3 kmh 29.75 in1007.5 mb 0.00 in0.0 mm 0.00 in0.0 mm 0.00 in0.0 mm
02:38 PM 73.5°F23.1°C 61.0°F16.1°C 65% 11.0 mph SSW17.7 kmh SSW 30.0 mph48.3 kmh 29.76 in1007.8 mb 0.00 in0.0 mm 0.00 in0.0 mm 0.00 in0.0 mm
02:40 PM 73.5°F23.1°C 61.0°F16.1°C 65% 12.0 mph SSE19.3 kmh SSE 30.0 mph48.3 kmh 29.76 in1007.8 mb 0.00 in0.0 mm 0.00 in0.0 mm 0.00 in0.0 mm
02:42 PM 73.5°F23.1°C 61.0°F16.1°C 65% 13.0 mph S20.9 kmh S 30.0 mph48.3 kmh 29.76 in1007.8 mb 0.00 in0.0 mm 0.00 in0.0 mm 0.00 in0.0 mm
02:44 PM 73.7°F23.2°C 61.2°F16.2°C 65% 16.0 mph S25.7 kmh S 30.0 mph48.3 kmh 29.76 in1007.8 mb 0.00 in0.0 mm 0.00 in0.0 mm 0.00 in0.0 mm
02:46 PM 74.0°F23.3°C 61.1°F16.2°C 64% 30.0 mph S48.3 kmh S 30.0 mph48.3 kmh 29.76 in1007.8 mb 0.00 in0.0 mm 0.00 in0.0 mm 0.00 in0.0 mm
02:48 PM 74.2°F23.4°C 61.3°F16.3°C 64% 23.0 mph SE37.0 kmh SE 30.0 mph48.3 kmh 29.76 in1007.8 mb 0.00 in0.0 mm 0.00 in0.0 mm 0.00 in0.0 mm
02:50 PM 74.2°F23.4°C 61.3°F16.3°C 64% 6.0 mph S9.7 kmh S 30.0 mph48.3 kmh 29.76 in1007.8 mb 0.00 in0.0 mm 0.00 in0.0 mm 0.00 in0.0 mm
02:52 PM 74.4°F23.6°C 61.0°F16.1°C 63% 8.0 mph SW12.9 kmh SW 30.0 mph48.3 kmh 29.76 in1007.8 mb 0.00 in0.0 mm 0.00 in0.0 mm 0.00 in0.0 mm
02:54 PM 74.6°F23.7°C 61.2°F16.2°C 63% 11.0 mph S17.7 kmh S 30.0 mph48.3 kmh 29.76 in1007.8 mb 0.00 in0.0 mm 0.00 in0.0 mm 0.00 in0.0 mm
02:56 PM 74.6°F23.7°C 61.2°F16.2°C 63% 11.0 mph SSE17.7 kmh SSE 30.0 mph48.3 kmh 29.76 in1007.8 mb 0.00 in0.0 mm 0.00 in0.0 mm 0.00 in0.0 mm
02:58 PM 74.7°F23.7°C 61.3°F16.3°C 63% 11.0 mph S17.7 kmh S 30.0 mph48.3 kmh 29.76 in1007.8 mb 0.00 in0.0 mm 0.00 in0.0 mm 0.00 in0.0 mm
03:00 PM 74.7°F23.7°C 61.3°F16.3°C 63% 12.0 mph S19.3 kmh S 30.0 mph48.3 kmh 29.76 in1007.8 mb 0.00 in0.0 mm 0.00 in0.0 mm 0.00 in0.0 mm
03:02 PM 74.5°F23.6°C 61.1°F16.2°C 63% 18.0 mph S29.0 kmh S 30.0 mph48.3 kmh 29.76 in1007.8 mb 0.00 in0.0 mm 0.00 in0.0 mm 0.00 in0.0 mm
03:04 PM 74.5°F23.6°C 61.5°F16.4°C 64% 13.0 mph S20.9 kmh S 17.0 mph27.4 kmh 29.76 in1007.8 mb 0.00 in0.0 mm 0.00 in0.0 mm 0.00 in0.0 mm
03:06 PM 74.7°F23.7°C 61.3°F16.3°C 63% 11.0 mph S17.7 kmh S 20.0 mph32.2 kmh 29.75 in1007.5 mb 0.00 in0.0 mm 0.00 in0.0 mm 0.00 in0.0 mm
03:08 PM 75.0°F23.9°C 61.6°F16.4°C 63% 17.0 mph S27.4 kmh S 20.0 mph32.2 kmh 29.75 in1007.5 mb 0.00 in0.0 mm 0.00 in0.0 mm 0.00 in0.0 mm
03:10 PM 75.1°F23.9°C 61.7°F16.5°C 63% 9.0 mph SSE14.5 kmh SSE 20.0 mph32.2 kmh 29.75 in1007.5 mb 0.00 in0.0 mm 0.00 in0.0 mm 0.00 in0.0 mm
03:12 PM 75.0°F23.9°C 61.6°F16.4°C 63% 15.0 mph SSW24.1 kmh SSW 23.0 mph37.0 kmh 29.75 in1007.5 mb 0.00 in0.0 mm 0.00 in0.0 mm 0.00 in0.0 mm
03:30 PM 74.4°F23.6°C 61.4°F16.3°C 64% 10.0 mph S16.1 kmh S 25.0 mph40.2 kmh 29.75 in1007.5 mb 0.00 in0.0 mm 0.00 in0.0 mm 0.00 in0.0 mm
03:32 PM 74.5°F23.6°C 61.1°F16.2°C 63% 14.0 mph SSW22.5 kmh SSW 25.0 mph40.2 kmh 29.75 in1007.5 mb 0.00 in0.0 mm 0.00 in0.0 mm 0.00 in0.0 mm
03:34 PM 74.5°F23.6°C 61.1°F16.2°C 63% 7.0 mph SSE11.3 kmh SSE 21.0 mph33.8 kmh 29.75 in1007.5 mb 0.00 in0.0 mm 0.00 in0.0 mm 0.00 in0.0 mm
03:36 PM 74.7°F23.7°C 61.3°F16.3°C 63% 13.0 mph SSE20.9 kmh SSE 21.0 mph33.8 kmh 29.75 in1007.5 mb 0.00 in0.0 mm 0.00 in0.0 mm 0.00 in0.0 mm
03:38 PM 74.8°F23.8°C 61.4°F16.3°C 63% 14.0 mph SSE22.5 kmh SSE 21.0 mph33.8 kmh 29.75 in1007.5 mb 0.00 in0.0 mm 0.00 in0.0 mm 0.00 in0.0 mm
03:40 PM 74.9°F23.8°C 61.5°F16.4°C 63% 12.0 mph SSE19.3 kmh SSE 21.0 mph33.8 kmh 29.75 in1007.5 mb 0.00 in0.0 mm 0.00 in0.0 mm 0.00 in0.0 mm
03:42 PM 75.1°F23.9°C 61.2°F16.2°C 62% 10.0 mph S16.1 kmh S 21.0 mph33.8 kmh 29.75 in1007.5 mb 0.00 in0.0 mm 0.00 in0.0 mm 0.00 in0.0 mm
03:44 PM 75.2°F24.0°C 61.3°F16.3°C 62% 14.0 mph S22.5 kmh S 21.0 mph33.8 kmh 29.75 in1007.5 mb 0.00 in0.0 mm 0.00 in0.0 mm 0.00 in0.0 mm
03:46 PM 75.4°F24.1°C 61.5°F16.4°C 62% 11.0 mph S17.7 kmh S 21.0 mph33.8 kmh 29.75 in1007.5 mb 0.00 in0.0 mm 0.00 in0.0 mm 0.00 in0.0 mm
03:48 PM 75.6°F24.2°C 61.7°F16.5°C 62% 5.0 mph SSW8.0 kmh SSW 21.0 mph33.8 kmh 29.75 in1007.5 mb 0.00 in0.0 mm 0.00 in0.0 mm 0.00 in0.0 mm
03:50 PM 75.8°F24.3°C 61.9°F16.6°C 62% 13.0 mph S20.9 kmh S 21.0 mph33.8 kmh 29.75 in1007.5 mb 0.00 in0.0 mm 0.00 in0.0 mm 0.00 in0.0 mm
03:52 PM 76.0°F24.4°C 61.6°F16.4°C 61% 12.0 mph SSE19.3 kmh SSE 21.0 mph33.8 kmh 29.75 in1007.5 mb 0.00 in0.0 mm 0.00 in0.0 mm 0.00 in0.0 mm
03:54 PM 76.0°F24.4°C 61.6°F16.4°C 61% 7.0 mph E11.3 kmh E 21.0 mph33.8 kmh 29.75 in1007.5 mb 0.00 in0.0 mm 0.00 in0.0 mm 0.00 in0.0 mm
03:56 PM 76.1°F24.5°C 61.7°F16.5°C 61% 7.0 mph S11.3 kmh S 21.0 mph33.8 kmh 29.75 in1007.5 mb 0.00 in0.0 mm 0.00 in0.0 mm 0.00 in0.0 mm
03:58 PM 76.2°F24.6°C 61.8°F16.6°C 61% 4.0 mph SE6.4 kmh SE 21.0 mph33.8 kmh 29.75 in1007.5 mb 0.00 in0.0 mm 0.00 in0.0 mm 0.00 in0.0 mm
04:00 PM 76.3°F24.6°C 61.9°F16.6°C 61% 20.0 mph SSW32.2 kmh SSW 24.0 mph38.6 kmh 29.75 in1007.5 mb 0.00 in0.0 mm 0.00 in0.0 mm 0.00 in0.0 mm
04:02 PM 76.3°F24.6°C 61.4°F16.3°C 60% 12.0 mph S19.3 kmh S 24.0 mph38.6 kmh 29.75 in1007.5 mb 0.00 in0.0 mm 0.00 in0.0 mm 0.00 in0.0 mm
04:04 PM 76.3°F24.6°C 61.4°F16.3°C 60% 6.0 mph S9.7 kmh S 19.0 mph30.6 kmh 29.75 in1007.5 mb 0.00 in0.0 mm 0.00 in0.0 mm 0.00 in0.0 mm
04:05 PM 76.4°F24.7°C 61.5°F16.4°C 60% 6.0 mph SSE9.7 kmh SSE 19.0 mph30.6 kmh 29.75 in1007.5 mb 0.00 in0.0 mm 0.00 in0.0 mm 0.00 in0.0 mm
04:08 PM 76.6°F24.8°C 61.7°F16.5°C 60% 6.0 mph SE9.7 kmh SE 25.0 mph40.2 kmh 29.75 in1007.5 mb 0.00 in0.0 mm 0.00 in0.0 mm 0.00 in0.0 mm
04:10 PM 76.7°F24.8°C 61.8°F16.6°C 60% 6.0 mph S9.7 kmh S 25.0 mph40.2 kmh 29.75 in1007.5 mb 0.00 in0.0 mm 0.00 in0.0 mm 0.00 in0.0 mm
04:12 PM 76.7°F24.8°C 61.8°F16.6°C 60% 11.0 mph SSW17.7 kmh SSW 25.0 mph40.2 kmh 29.75 in1007.5 mb 0.00 in0.0 mm 0.00 in0.0 mm 0.00 in0.0 mm
04:14 PM 76.7°F24.8°C 61.8°F16.6°C 60% 18.0 mph S29.0 kmh S 25.0 mph40.2 kmh 29.75 in1007.5 mb 0.00 in0.0 mm 0.00 in0.0 mm 0.00 in0.0 mm
04:16 PM 76.8°F24.9°C 61.9°F16.6°C 60% 4.0 mph SE6.4 kmh SE 25.0 mph40.2 kmh 29.75 in1007.5 mb 0.00 in0.0 mm 0.00 in0.0 mm 0.00 in0.0 mm
04:18 PM 76.7°F24.8°C 61.3°F16.3°C 59% 13.0 mph S20.9 kmh S 25.0 mph40.2 kmh 29.76 in1007.8 mb 0.00 in0.0 mm 0.00 in0.0 mm 0.00 in0.0 mm
04:20 PM 76.5°F24.7°C 61.6°F16.4°C 60% 9.0 mph SSW14.5 kmh SSW 25.0 mph40.2 kmh 29.75 in1007.5 mb 0.00 in0.0 mm 0.00 in0.0 mm 0.00 in0.0 mm
04:22 PM 76.4°F24.7°C 61.5°F16.4°C 60% 5.0 mph SE8.0 kmh SE 25.0 mph40.2 kmh 29.75 in1007.5 mb 0.00 in0.0 mm 0.00 in0.0 mm 0.00 in0.0 mm
04:24 PM 76.4°F24.7°C 61.5°F16.4°C 60% 8.0 mph S12.9 kmh S 25.0 mph40.2 kmh 29.75 in1007.5 mb 0.00 in0.0 mm 0.00 in0.0 mm 0.00 in0.0 mm
04:26 PM 76.3°F24.6°C 61.4°F16.3°C 60% 9.0 mph SW14.5 kmh SW 25.0 mph40.2 kmh 29.75 in1007.5 mb 0.00 in0.0 mm 0.00 in0.0 mm 0.00 in0.0 mm
04:28 PM 76.3°F24.6°C 61.4°F16.3°C 60% 14.0 mph SE22.5 kmh SE 25.0 mph40.2 kmh 29.75 in1007.5 mb 0.00 in0.0 mm 0.00 in0.0 mm 0.00 in0.0 mm
04:30 PM 76.3°F24.6°C 61.4°F16.3°C 60% 8.0 mph SSW12.9 kmh SSW 25.0 mph40.2 kmh 29.75 in1007.5 mb 0.00 in0.0 mm 0.00 in0.0 mm 0.00 in0.0 mm
04:32 PM 76.3°F24.6°C 61.4°F16.3°C 60% 9.0 mph S14.5 kmh S 25.0 mph40.2 kmh 29.75 in1007.5 mb 0.00 in0.0 mm 0.00 in0.0 mm 0.00 in0.0 mm
04:34 PM 76.2°F24.6°C 61.3°F16.3°C 60% 9.0 mph SE14.5 kmh SE 13.0 mph20.9 kmh 29.75 in1007.5 mb 0.00 in0.0 mm 0.00 in0.0 mm 0.00 in0.0 mm
04:36 PM 76.1°F24.5°C 61.2°F16.2°C 60% 7.0 mph S11.3 kmh S 13.0 mph20.9 kmh 29.75 in1007.5 mb 0.00 in0.0 mm 0.00 in0.0 mm 0.00 in0.0 mm
04:38 PM 76.1°F24.5°C 61.2°F16.2°C 60% 7.0 mph SSE11.3 kmh SSE 19.0 mph30.6 kmh 29.75 in1007.5 mb 0.00 in0.0 mm 0.00 in0.0 mm 0.00 in0.0 mm
04:40 PM 76.0°F24.4°C 60.7°F15.9°C 59% 4.0 mph S6.4 kmh S 19.0 mph30.6 kmh 29.75 in1007.5 mb 0.00 in0.0 mm 0.00 in0.0 mm 0.00 in0.0 mm
04:42 PM 76.0°F24.4°C 61.1°F16.2°C 60% 6.0 mph SW9.7 kmh SW 19.0 mph30.6 kmh 29.75 in1007.5 mb 0.00 in0.0 mm 0.00 in0.0 mm 0.00 in0.0 mm
04:44 PM 76.0°F24.4°C 60.7°F15.9°C 59% 9.0 mph SE14.5 kmh SE 19.0 mph30.6 kmh 29.75 in1007.5 mb 0.00 in0.0 mm 0.00 in0.0 mm 0.00 in0.0 mm
04:46 PM 75.9°F24.4°C 60.6°F15.9°C 59% 9.0 mph SSE14.5 kmh SSE 19.0 mph30.6 kmh 29.75 in1007.5 mb 0.00 in0.0 mm 0.00 in0.0 mm 0.00 in0.0 mm
04:48 PM 75.9°F24.4°C 60.6°F15.9°C 59% 3.0 mph S4.8 kmh S 19.0 mph30.6 kmh 29.75 in1007.5 mb 0.00 in0.0 mm 0.00 in0.0 mm 0.00 in0.0 mm
04:50 PM 75.9°F24.4°C 60.6°F15.9°C 59% 9.0 mph S14.5 kmh S 19.0 mph30.6 kmh 29.75 in1007.5 mb 0.00 in0.0 mm 0.00 in0.0 mm 0.00 in0.0 mm
04:52 PM 75.9°F24.4°C 60.6°F15.9°C 59% 7.0 mph SSE11.3 kmh SSE 19.0 mph30.6 kmh 29.75 in1007.5 mb 0.00 in0.0 mm 0.00 in0.0 mm 0.00 in0.0 mm
04:54 PM 75.9°F24.4°C 60.6°F15.9°C 59% 6.0 mph S9.7 kmh S 19.0 mph30.6 kmh 29.75 in1007.5 mb 0.00 in0.0 mm 0.00 in0.0 mm 0.00 in0.0 mm
04:56 PM 75.8°F24.3°C 60.5°F15.8°C 59% 6.0 mph S9.7 kmh S 19.0 mph30.6 kmh 29.75 in1007.5 mb 0.00 in0.0 mm 0.00 in0.0 mm 0.00 in0.0 mm
04:58 PM 75.7°F24.3°C 60.4°F15.8°C 59% 7.0 mph S11.3 kmh S 19.0 mph30.6 kmh 29.75 in1007.5 mb 0.00 in0.0 mm 0.00 in0.0 mm 0.00 in0.0 mm
05:00 PM 75.8°F24.3°C 60.5°F15.8°C 59% 12.0 mph S19.3 kmh S 19.0 mph30.6 kmh 29.75 in1007.5 mb 0.00 in0.0 mm 0.00 in0.0 mm 0.00 in0.0 mm
05:02 PM 75.8°F24.3°C 60.5°F15.8°C 59% 8.0 mph SSW12.9 kmh SSW 19.0 mph30.6 kmh 29.75 in1007.5 mb 0.00 in0.0 mm 0.00 in0.0 mm 0.00 in0.0 mm
05:04 PM 75.8°F24.3°C 60.5°F15.8°C 59% 14.0 mph SW22.5 kmh SW 14.0 mph22.5 kmh 29.76 in1007.8 mb 0.00 in0.0 mm 0.00 in0.0 mm 0.00 in0.0 mm
05:06 PM 75.7°F24.3°C 59.9°F15.5°C 58% 6.0 mph S9.7 kmh S 14.0 mph22.5 kmh 29.76 in1007.8 mb 0.00 in0.0 mm 0.00 in0.0 mm 0.00 in0.0 mm
05:08 PM 75.8°F24.3°C 60.0°F15.6°C 58% 15.0 mph S24.1 kmh S 15.0 mph24.1 kmh 29.76 in1007.8 mb 0.00 in0.0 mm 0.00 in0.0 mm 0.00 in0.0 mm
05:10 PM 75.9°F24.4°C 60.1°F15.6°C 58% 12.0 mph SSW19.3 kmh SSW 15.0 mph24.1 kmh 29.76 in1007.8 mb 0.00 in0.0 mm 0.00 in0.0 mm 0.00 in0.0 mm
05:12 PM 76.0°F24.4°C 59.7°F15.4°C 57% 12.0 mph SE19.3 kmh SE 15.0 mph24.1 kmh 29.76 in1007.8 mb 0.00 in0.0 mm 0.00 in0.0 mm 0.00 in0.0 mm
05:14 PM 76.0°F24.4°C 59.7°F15.4°C 57% 5.0 mph S8.0 kmh S 15.0 mph24.1 kmh 29.76 in1007.8 mb 0.00 in0.0 mm 0.00 in0.0 mm 0.00 in0.0 mm
05:16 PM 76.1°F24.5°C 59.8°F15.4°C 57% 8.0 mph S12.9 kmh S 15.0 mph24.1 kmh 29.76 in1007.8 mb 0.00 in0.0 mm 0.00 in0.0 mm 0.00 in0.0 mm
05:18 PM 76.0°F24.4°C 59.7°F15.4°C 57% 11.0 mph SSW17.7 kmh SSW 18.0 mph29.0 kmh 29.76 in1007.8 mb 0.00 in0.0 mm 0.00 in0.0 mm 0.00 in0.0 mm
05:20 PM 76.0°F24.4°C 59.7°F15.4°C 57% 8.0 mph SSE12.9 kmh SSE 18.0 mph29.0 kmh 29.76 in1007.8 mb 0.00 in0.0 mm 0.00 in0.0 mm 0.00 in0.0 mm
05:22 PM 76.0°F24.4°C 59.7°F15.4°C 57% 7.0 mph S11.3 kmh S 18.0 mph29.0 kmh 29.77 in1008.1 mb 0.00 in0.0 mm 0.00 in0.0 mm 0.00 in0.0 mm
05:24 PM 76.0°F24.4°C 59.7°F15.4°C 57% 6.0 mph S9.7 kmh S 18.0 mph29.0 kmh 29.77 in1008.1 mb 0.00 in0.0 mm 0.00 in0.0 mm 0.00 in0.0 mm
05:26 PM 76.0°F24.4°C 59.7°F15.4°C 57% 6.0 mph SSE9.7 kmh SSE 18.0 mph29.0 kmh 29.76 in1007.8 mb 0.00 in0.0 mm 0.00 in0.0 mm 0.00 in0.0 mm
05:28 PM 75.9°F24.4°C 59.6°F15.3°C 57% 4.0 mph S6.4 kmh S 18.0 mph29.0 kmh 29.76 in1007.8 mb 0.00 in0.0 mm 0.00 in0.0 mm 0.00 in0.0 mm
05:44 PM 75.8°F24.3°C 60.0°F15.6°C 58% 3.0 mph S4.8 kmh S 14.0 mph22.5 kmh 29.77 in1008.1 mb 0.00 in0.0 mm 0.00 in0.0 mm 0.00 in0.0 mm
05:46 PM 75.8°F24.3°C 60.0°F15.6°C 58% 6.0 mph S9.7 kmh S 14.0 mph22.5 kmh 29.78 in1008.5 mb 0.00 in0.0 mm 0.00 in0.0 mm 0.00 in0.0 mm
05:48 PM 75.8°F24.3°C 60.0°F15.6°C 58% 8.0 mph SSE12.9 kmh SSE 14.0 mph22.5 kmh 29.77 in1008.1 mb 0.00 in0.0 mm 0.00 in0.0 mm 0.00 in0.0 mm
05:50 PM 75.8°F24.3°C 60.0°F15.6°C 58% 2.0 mph SSE3.2 kmh SSE 14.0 mph22.5 kmh 29.78 in1008.5 mb 0.00 in0.0 mm 0.00 in0.0 mm 0.00 in0.0 mm
05:52 PM 75.7°F24.3°C 59.9°F15.5°C 58% 12.0 mph SSW19.3 kmh SSW 14.0 mph22.5 kmh 29.77 in1008.1 mb 0.00 in0.0 mm 0.00 in0.0 mm 0.00 in0.0 mm
05:54 PM 75.7°F24.3°C 59.9°F15.5°C 58% 6.0 mph SE9.7 kmh SE 14.0 mph22.5 kmh 29.78 in1008.5 mb 0.00 in0.0 mm 0.00 in0.0 mm 0.00 in0.0 mm
05:56 PM 75.7°F24.3°C 59.9°F15.5°C 58% 9.0 mph S14.5 kmh S 14.0 mph22.5 kmh 29.78 in1008.5 mb 0.00 in0.0 mm 0.00 in0.0 mm 0.00 in0.0 mm
05:58 PM 75.7°F24.3°C 59.9°F15.5°C 58% 6.0 mph SSW9.7 kmh SSW 14.0 mph22.5 kmh 29.78 in1008.5 mb 0.00 in0.0 mm 0.00 in0.0 mm 0.00 in0.0 mm
06:00 PM 75.7°F24.3°C 59.9°F15.5°C 58% 3.0 mph SSW4.8 kmh SSW 14.0 mph22.5 kmh 29.78 in1008.5 mb 0.00 in0.0 mm 0.00 in0.0 mm 0.00 in0.0 mm
06:02 PM 75.8°F24.3°C 59.5°F15.3°C 57% 13.0 mph S20.9 kmh S 14.0 mph22.5 kmh 29.78 in1008.5 mb 0.00 in0.0 mm 0.00 in0.0 mm 0.00 in0.0 mm
06:04 PM 75.8°F24.3°C 59.5°F15.3°C 57% 9.0 mph SSE14.5 kmh SSE 10.0 mph16.1 kmh 29.79 in1008.8 mb 0.00 in0.0 mm 0.00 in0.0 mm 0.00 in0.0 mm
06:06 PM 75.9°F24.4°C 59.6°F15.3°C 57% 5.0 mph SW8.0 kmh SW 12.0 mph19.3 kmh 29.79 in1008.8 mb 0.00 in0.0 mm 0.00 in0.0 mm 0.00 in0.0 mm
06:08 PM 75.9°F24.4°C 59.6°F15.3°C 57% 1.0 mph SSE1.6 kmh SSE 12.0 mph19.3 kmh 29.78 in1008.5 mb 0.00 in0.0 mm 0.00 in0.0 mm 0.00 in0.0 mm
06:10 PM 75.9°F24.4°C 59.6°F15.3°C 57% 5.0 mph SSE8.0 kmh SSE 12.0 mph19.3 kmh 29.79 in1008.8 mb 0.00 in0.0 mm 0.00 in0.0 mm 0.00 in0.0 mm
06:12 PM 75.9°F24.4°C 59.6°F15.3°C 57% 7.0 mph S11.3 kmh S 12.0 mph19.3 kmh 29.78 in1008.5 mb 0.00 in0.0 mm 0.00 in0.0 mm 0.00 in0.0 mm
06:14 PM 75.9°F24.4°C 59.6°F15.3°C 57% 3.0 mph S4.8 kmh S 12.0 mph19.3 kmh 29.78 in1008.5 mb 0.00 in0.0 mm 0.00 in0.0 mm 0.00 in0.0 mm
06:16 PM 75.9°F24.4°C 59.6°F15.3°C 57% 5.0 mph S8.0 kmh S 12.0 mph19.3 kmh 29.79 in1008.8 mb 0.00 in0.0 mm 0.00 in0.0 mm 0.00 in0.0 mm
06:18 PM 75.9°F24.4°C 59.6°F15.3°C 57% 3.0 mph SSW4.8 kmh SSW 12.0 mph19.3 kmh 29.78 in1008.5 mb 0.00 in0.0 mm 0.00 in0.0 mm 0.00 in0.0 mm
06:20 PM 75.9°F24.4°C 59.6°F15.3°C 57% 2.0 mph SSE3.2 kmh SSE 12.0 mph19.3 kmh 29.79 in1008.8 mb 0.00 in0.0 mm 0.00 in0.0 mm 0.00 in0.0 mm
06:22 PM 75.8°F24.3°C 59.5°F15.3°C 57% 4.0 mph SW6.4 kmh SW 12.0 mph19.3 kmh 29.79 in1008.8 mb 0.00 in0.0 mm 0.00 in0.0 mm 0.00 in0.0 mm
06:24 PM 75.9°F24.4°C 59.6°F15.3°C 57% 6.0 mph S9.7 kmh S 12.0 mph19.3 kmh 29.79 in1008.8 mb 0.00 in0.0 mm 0.00 in0.0 mm 0.00 in0.0 mm
06:26 PM 75.9°F24.4°C 59.6°F15.3°C 57% 5.0 mph S8.0 kmh S 12.0 mph19.3 kmh 29.80 in1009.1 mb 0.00 in0.0 mm 0.00 in0.0 mm 0.00 in0.0 mm
06:28 PM 75.8°F24.3°C 59.5°F15.3°C 57% 5.0 mph SE8.0 kmh SE 12.0 mph19.3 kmh 29.80 in1009.1 mb 0.00 in0.0 mm 0.00 in0.0 mm 0.00 in0.0 mm
06:30 PM 75.8°F24.3°C 59.5°F15.3°C 57% 5.0 mph S8.0 kmh S 12.0 mph19.3 kmh 29.80 in1009.1 mb 0.00 in0.0 mm 0.00 in0.0 mm 0.00 in0.0 mm
06:32 PM 75.7°F24.3°C 59.4°F15.2°C 57% 4.0 mph SSW6.4 kmh SSW 12.0 mph19.3 kmh 29.80 in1009.1 mb 0.00 in0.0 mm 0.00 in0.0 mm 0.00 in0.0 mm
06:34 PM 75.7°F24.3°C 59.4°F15.2°C 57% 4.0 mph SE6.4 kmh SE 10.0 mph16.1 kmh 29.80 in1009.1 mb 0.00 in0.0 mm 0.00 in0.0 mm 0.00 in0.0 mm
06:36 PM 75.8°F24.3°C 59.5°F15.3°C 57% 5.0 mph SSE8.0 kmh SSE 10.0 mph16.1 kmh 29.80 in1009.1 mb 0.00 in0.0 mm 0.00 in0.0 mm 0.00 in0.0 mm
06:38 PM 75.7°F24.3°C 59.4°F15.2°C 57% 3.0 mph SE4.8 kmh SE 10.0 mph16.1 kmh 29.80 in1009.1 mb 0.00 in0.0 mm 0.00 in0.0 mm 0.00 in0.0 mm
06:40 PM 75.7°F24.3°C 59.4°F15.2°C 57% 3.0 mph SE4.8 kmh SE 10.0 mph16.1 kmh 29.80 in1009.1 mb 0.00 in0.0 mm 0.00 in0.0 mm 0.00 in0.0 mm
06:42 PM 75.7°F24.3°C 59.4°F15.2°C 57% 5.0 mph SE8.0 kmh SE 10.0 mph16.1 kmh 29.80 in1009.1 mb 0.00 in0.0 mm 0.00 in0.0 mm 0.00 in0.0 mm
06:44 PM 75.6°F24.2°C 59.3°F15.2°C 57% 2.0 mph SSE3.2 kmh SSE 10.0 mph16.1 kmh 29.80 in1009.1 mb 0.00 in0.0 mm 0.00 in0.0 mm 0.00 in0.0 mm
06:46 PM 75.6°F24.2°C 59.8°F15.4°C 58% 4.0 mph S6.4 kmh S 10.0 mph16.1 kmh 29.80 in1009.1 mb 0.00 in0.0 mm 0.00 in0.0 mm 0.00 in0.0 mm
06:48 PM 75.6°F24.2°C 59.8°F15.4°C 58% 3.0 mph SE4.8 kmh SE 10.0 mph16.1 kmh 29.80 in1009.1 mb 0.00 in0.0 mm 0.00 in0.0 mm 0.00 in0.0 mm
06:50 PM 75.5°F24.2°C 59.7°F15.4°C 58% 7.0 mph ESE11.3 kmh ESE 11.0 mph17.7 kmh 29.80 in1009.1 mb 0.00 in0.0 mm 0.00 in0.0 mm 0.00 in0.0 mm
06:52 PM 75.5°F24.2°C 59.7°F15.4°C 58% 5.0 mph SE8.0 kmh SE 11.0 mph17.7 kmh 29.81 in1009.5 mb 0.00 in0.0 mm 0.00 in0.0 mm 0.00 in0.0 mm
06:54 PM 75.5°F24.2°C 59.7°F15.4°C 58% 9.0 mph SSE14.5 kmh SSE 13.0 mph20.9 kmh 29.81 in1009.5 mb 0.00 in0.0 mm 0.00 in0.0 mm 0.00 in0.0 mm
06:56 PM 75.5°F24.2°C 59.7°F15.4°C 58% 8.0 mph SE12.9 kmh SE 13.0 mph20.9 kmh 29.81 in1009.5 mb 0.00 in0.0 mm 0.00 in0.0 mm 0.00 in0.0 mm
06:58 PM 75.5°F24.2°C 60.2°F15.7°C 59% 4.0 mph SE6.4 kmh SE 13.0 mph20.9 kmh 29.81 in1009.5 mb 0.00 in0.0 mm 0.00 in0.0 mm 0.00 in0.0 mm
07:00 PM 75.5°F24.2°C 60.2°F15.7°C 59% 7.0 mph SE11.3 kmh SE 13.0 mph20.9 kmh 29.81 in1009.5 mb 0.00 in0.0 mm 0.00 in0.0 mm 0.00 in0.0 mm
07:02 PM 75.4°F24.1°C 60.1°F15.6°C 59% 6.0 mph S9.7 kmh S 13.0 mph20.9 kmh 29.81 in1009.5 mb 0.00 in0.0 mm 0.00 in0.0 mm 0.00 in0.0 mm
07:04 PM 75.4°F24.1°C 60.1°F15.6°C 59% 6.0 mph S9.7 kmh S 10.0 mph16.1 kmh 29.81 in1009.5 mb 0.00 in0.0 mm 0.00 in0.0 mm 0.00 in0.0 mm
07:06 PM 75.4°F24.1°C 60.1°F15.6°C 59% 7.0 mph SSE11.3 kmh SSE 10.0 mph16.1 kmh 29.81 in1009.5 mb 0.00 in0.0 mm 0.00 in0.0 mm 0.00 in0.0 mm
07:08 PM 75.4°F24.1°C 60.6°F15.9°C 60% 5.0 mph S8.0 kmh S 10.0 mph16.1 kmh 29.81 in1009.5 mb 0.00 in0.0 mm 0.00 in0.0 mm 0.00 in0.0 mm
07:10 PM 75.3°F24.1°C 60.5°F15.8°C 60% 7.0 mph SE11.3 kmh SE 12.0 mph19.3 kmh 29.81 in1009.5 mb 0.00 in0.0 mm 0.00 in0.0 mm 0.00 in0.0 mm
07:12 PM 75.3°F24.1°C 60.5°F15.8°C 60% 4.0 mph S6.4 kmh S 12.0 mph19.3 kmh 29.81 in1009.5 mb 0.00 in0.0 mm 0.00 in0.0 mm 0.00 in0.0 mm
07:14 PM 75.3°F24.1°C 60.5°F15.8°C 60% 1.0 mph SE1.6 kmh SE 12.0 mph19.3 kmh 29.81 in1009.5 mb 0.00 in0.0 mm 0.00 in0.0 mm 0.00 in0.0 mm
07:16 PM 75.3°F24.1°C 60.5°F15.8°C 60% 3.0 mph S4.8 kmh S 12.0 mph19.3 kmh 29.81 in1009.5 mb 0.00 in0.0 mm 0.00 in0.0 mm 0.00 in0.0 mm
07:18 PM 75.2°F24.0°C 60.4°F15.8°C 60% 4.0 mph SSE6.4 kmh SSE 12.0 mph19.3 kmh 29.81 in1009.5 mb 0.00 in0.0 mm 0.00 in0.0 mm 0.00 in0.0 mm
07:20 PM 75.2°F24.0°C 60.4°F15.8°C 60% 8.0 mph S12.9 kmh S 12.0 mph19.3 kmh 29.81 in1009.5 mb 0.00 in0.0 mm 0.00 in0.0 mm 0.00 in0.0 mm
07:22 PM 75.1°F23.9°C 60.3°F15.7°C 60% 10.0 mph S16.1 kmh S 12.0 mph19.3 kmh 29.81 in1009.5 mb 0.00 in0.0 mm 0.00 in0.0 mm 0.00 in0.0 mm
07:24 PM 75.2°F24.0°C 60.8°F16.0°C 61% 6.0 mph S9.7 kmh S 12.0 mph19.3 kmh 29.81 in1009.5 mb 0.00 in0.0 mm 0.00 in0.0 mm 0.00 in0.0 mm
07:26 PM 75.1°F23.9°C 60.8°F16.0°C 61% 3.0 mph SSE4.8 kmh SSE 12.0 mph19.3 kmh 29.81 in1009.5 mb 0.00 in0.0 mm 0.00 in0.0 mm 0.00 in0.0 mm
07:28 PM 75.1°F23.9°C 60.8°F16.0°C 61% 6.0 mph S9.7 kmh S 12.0 mph19.3 kmh 29.81 in1009.5 mb 0.00 in0.0 mm 0.00 in0.0 mm 0.00 in0.0 mm
07:30 PM 75.0°F23.9°C 60.7°F15.9°C 61% 8.0 mph SE12.9 kmh SE 12.0 mph19.3 kmh 29.81 in1009.5 mb 0.00 in0.0 mm 0.00 in0.0 mm 0.00 in0.0 mm
07:32 PM 75.0°F23.9°C 60.7°F15.9°C 61% 7.0 mph SSE11.3 kmh SSE 12.0 mph19.3 kmh 29.81 in1009.5 mb 0.00 in0.0 mm 0.00 in0.0 mm 0.00 in0.0 mm
07:34 PM 75.0°F23.9°C 60.7°F15.9°C 61% 4.0 mph ESE6.4 kmh ESE 10.0 mph16.1 kmh 29.81 in1009.5 mb 0.00 in0.0 mm 0.00 in0.0 mm 0.00 in0.0 mm
07:36 PM 75.0°F23.9°C 60.7°F15.9°C 61% 9.0 mph ESE14.5 kmh ESE 10.0 mph16.1 kmh 29.81 in1009.5 mb 0.00 in0.0 mm 0.00 in0.0 mm 0.00 in0.0 mm
07:38 PM 75.0°F23.9°C 60.7°F15.9°C 61% 8.0 mph SE12.9 kmh SE 11.0 mph17.7 kmh 29.81 in1009.5 mb 0.00 in0.0 mm 0.00 in0.0 mm 0.00 in0.0 mm
07:40 PM 75.0°F23.9°C 60.7°F15.9°C 61% 6.0 mph SSE9.7 kmh SSE 11.0 mph17.7 kmh 29.81 in1009.5 mb 0.00 in0.0 mm 0.00 in0.0 mm 0.00 in0.0 mm
07:42 PM 75.0°F23.9°C 60.7°F15.9°C 61% 3.0 mph E4.8 kmh E 11.0 mph17.7 kmh 29.82 in1009.8 mb 0.00 in0.0 mm 0.00 in0.0 mm 0.00 in0.0 mm
07:44 PM 74.9°F23.8°C 60.6°F15.9°C 61% 6.0 mph SSW9.7 kmh SSW 11.0 mph17.7 kmh 29.82 in1009.8 mb 0.00 in0.0 mm 0.00 in0.0 mm 0.00 in0.0 mm
07:46 PM 74.9°F23.8°C 60.6°F15.9°C 61% 2.0 mph ESE3.2 kmh ESE 11.0 mph17.7 kmh 29.82 in1009.8 mb 0.00 in0.0 mm 0.00 in0.0 mm 0.00 in0.0 mm
07:48 PM 74.9°F23.8°C 60.6°F15.9°C 61% 8.0 mph S12.9 kmh S 11.0 mph17.7 kmh 29.82 in1009.8 mb 0.00 in0.0 mm 0.00 in0.0 mm 0.00 in0.0 mm
07:50 PM 74.9°F23.8°C 60.6°F15.9°C 61% 2.0 mph SSE3.2 kmh SSE 11.0 mph17.7 kmh 29.82 in1009.8 mb 0.00 in0.0 mm 0.00 in0.0 mm 0.00 in0.0 mm
07:51 PM 74.8°F23.8°C 60.5°F15.8°C 61% 4.0 mph SE6.4 kmh SE 11.0 mph17.7 kmh 29.82 in1009.8 mb 0.00 in0.0 mm 0.00 in0.0 mm 0.00 in0.0 mm
07:54 PM 74.8°F23.8°C 60.5°F15.8°C 61% 5.0 mph SE8.0 kmh SE 11.0 mph17.7 kmh 29.82 in1009.8 mb 0.00 in0.0 mm 0.00 in0.0 mm 0.00 in0.0 mm
07:56 PM 74.8°F23.8°C 60.5°F15.8°C 61% 4.0 mph SE6.4 kmh SE 11.0 mph17.7 kmh 29.82 in1009.8 mb 0.00 in0.0 mm 0.00 in0.0 mm 0.00 in0.0 mm
07:58 PM 74.7°F23.7°C 60.4°F15.8°C 61% 7.0 mph SE11.3 kmh SE 11.0 mph17.7 kmh 29.82 in1009.8 mb 0.00 in0.0 mm 0.00 in0.0 mm 0.00 in0.0 mm
08:00 PM 74.7°F23.7°C 60.8°F16.0°C 62% 8.0 mph SE12.9 kmh SE 11.0 mph17.7 kmh 29.82 in1009.8 mb 0.00 in0.0 mm 0.00 in0.0 mm 0.00 in0.0 mm
08:02 PM 74.6°F23.7°C 60.7°F15.9°C 62% 2.0 mph SE3.2 kmh SE 11.0 mph17.7 kmh 29.82 in1009.8 mb 0.00 in0.0 mm 0.00 in0.0 mm 0.00 in0.0 mm
08:04 PM 74.5°F23.6°C 60.6°F15.9°C 62% 3.0 mph E4.8 kmh E 10.0 mph16.1 kmh 29.82 in1009.8 mb 0.00 in0.0 mm 0.00 in0.0 mm 0.00 in0.0 mm
08:06 PM 74.4°F23.6°C 61.0°F16.1°C 63% 12.0 mph SSE19.3 kmh SSE 14.0 mph22.5 kmh 29.82 in1009.8 mb 0.00 in0.0 mm 0.00 in0.0 mm 0.00 in0.0 mm
08:08 PM 74.4°F23.6°C 61.0°F16.1°C 63% 7.0 mph SSE11.3 kmh SSE 14.0 mph22.5 kmh 29.82 in1009.8 mb 0.00 in0.0 mm 0.00 in0.0 mm 0.00 in0.0 mm
08:10 PM 74.4°F23.6°C 61.0°F16.1°C 63% 3.0 mph SE4.8 kmh SE 14.0 mph22.5 kmh 29.82 in1009.8 mb 0.00 in0.0 mm 0.00 in0.0 mm 0.00 in0.0 mm
08:12 PM 74.3°F23.5°C 60.9°F16.1°C 63% 2.0 mph SE3.2 kmh SE 14.0 mph22.5 kmh 29.82 in1009.8 mb 0.00 in0.0 mm 0.00 in0.0 mm 0.00 in0.0 mm
08:14 PM 74.2°F23.4°C 60.8°F16.0°C 63% 9.0 mph SSE14.5 kmh SSE 14.0 mph22.5 kmh 29.82 in1009.8 mb 0.00 in0.0 mm 0.00 in0.0 mm 0.00 in0.0 mm
08:16 PM 74.2°F23.4°C 60.8°F16.0°C 63% 5.0 mph SE8.0 kmh SE 14.0 mph22.5 kmh 29.82 in1009.8 mb 0.00 in0.0 mm 0.00 in0.0 mm 0.00 in0.0 mm
08:18 PM 74.2°F23.4°C 60.8°F16.0°C 63% 5.0 mph S8.0 kmh S 14.0 mph22.5 kmh 29.82 in1009.8 mb 0.00 in0.0 mm 0.00 in0.0 mm 0.00 in0.0 mm
08:20 PM 74.2°F23.4°C 61.3°F16.3°C 64% 8.0 mph SSE12.9 kmh SSE 14.0 mph22.5 kmh 29.82 in1009.8 mb 0.00 in0.0 mm 0.00 in0.0 mm 0.00 in0.0 mm
08:22 PM 74.1°F23.4°C 61.2°F16.2°C 64% 11.0 mph S17.7 kmh S 14.0 mph22.5 kmh 29.83 in1010.2 mb 0.00 in0.0 mm 0.00 in0.0 mm 0.00 in0.0 mm
08:24 PM 74.1°F23.4°C 61.2°F16.2°C 64% 12.0 mph S19.3 kmh S 14.0 mph22.5 kmh 29.82 in1009.8 mb 0.00 in0.0 mm 0.00 in0.0 mm 0.00 in0.0 mm
08:26 PM 74.0°F23.3°C 61.1°F16.2°C 64% 5.0 mph SE8.0 kmh SE 14.0 mph22.5 kmh 29.82 in1009.8 mb 0.00 in0.0 mm 0.00 in0.0 mm 0.00 in0.0 mm
08:28 PM 74.0°F23.3°C 61.1°F16.2°C 64% 7.0 mph S11.3 kmh S 14.0 mph22.5 kmh 29.82 in1009.8 mb 0.00 in0.0 mm 0.00 in0.0 mm 0.00 in0.0 mm
08:30 PM 73.9°F23.3°C 61.0°F16.1°C 64% 5.0 mph SE8.0 kmh SE 14.0 mph22.5 kmh 29.82 in1009.8 mb 0.00 in0.0 mm 0.00 in0.0 mm 0.00 in0.0 mm
08:32 PM 73.8°F23.2°C 60.9°F16.1°C 64% 5.0 mph SSE8.0 kmh SSE 14.0 mph22.5 kmh 29.82 in1009.8 mb 0.00 in0.0 mm 0.00 in0.0 mm 0.00 in0.0 mm
08:34 PM 73.7°F23.2°C 61.2°F16.2°C 65% 9.0 mph SE14.5 kmh SE 11.0 mph17.7 kmh 29.82 in1009.8 mb 0.00 in0.0 mm 0.00 in0.0 mm 0.00 in0.0 mm
08:36 PM 73.7°F23.2°C 61.2°F16.2°C 65% 5.0 mph SE8.0 kmh SE 13.0 mph20.9 kmh 29.82 in1009.8 mb 0.00 in0.0 mm 0.00 in0.0 mm 0.00 in0.0 mm
08:38 PM 73.7°F23.2°C 61.2°F16.2°C 65% 8.0 mph S12.9 kmh S 16.0 mph25.7 kmh 29.82 in1009.8 mb 0.00 in0.0 mm 0.00 in0.0 mm 0.00 in0.0 mm
08:40 PM 73.6°F23.1°C 61.1°F16.2°C 65% 10.0 mph SE16.1 kmh SE 16.0 mph25.7 kmh 29.82 in1009.8 mb 0.00 in0.0 mm 0.00 in0.0 mm 0.00 in0.0 mm
08:42 PM 73.5°F23.1°C 61.0°F16.1°C 65% 10.0 mph SSE16.1 kmh SSE 16.0 mph25.7 kmh 29.82 in1009.8 mb 0.00 in0.0 mm 0.00 in0.0 mm 0.00 in0.0 mm
08:44 PM 73.5°F23.1°C 61.0°F16.1°C 65% 6.0 mph S9.7 kmh S 16.0 mph25.7 kmh 29.82 in1009.8 mb 0.00 in0.0 mm 0.00 in0.0 mm 0.00 in0.0 mm
08:46 PM 73.5°F23.1°C 61.0°F16.1°C 65% 5.0 mph SSE8.0 kmh SSE 16.0 mph25.7 kmh 29.82 in1009.8 mb 0.00 in0.0 mm 0.00 in0.0 mm 0.00 in0.0 mm
08:48 PM 73.5°F23.1°C 61.0°F16.1°C 65% 3.0 mph SE4.8 kmh SE 16.0 mph25.7 kmh 29.82 in1009.8 mb 0.00 in0.0 mm 0.00 in0.0 mm 0.00 in0.0 mm
08:50 PM 73.4°F23.0°C 61.4°F16.3°C 66% 11.0 mph SSE17.7 kmh SSE 16.0 mph25.7 kmh 29.82 in1009.8 mb 0.00 in0.0 mm 0.00 in0.0 mm 0.00 in0.0 mm
08:52 PM 73.4°F23.0°C 61.4°F16.3°C 66% 4.0 mph S6.4 kmh S 16.0 mph25.7 kmh 29.82 in1009.8 mb 0.00 in0.0 mm 0.00 in0.0 mm 0.00 in0.0 mm
08:54 PM 73.4°F23.0°C 61.4°F16.3°C 66% 5.0 mph S8.0 kmh S 16.0 mph25.7 kmh 29.83 in1010.2 mb 0.00 in0.0 mm 0.00 in0.0 mm 0.00 in0.0 mm
08:56 PM 73.3°F22.9°C 61.3°F16.3°C 66% 7.0 mph SSE11.3 kmh SSE 17.0 mph27.4 kmh 29.82 in1009.8 mb 0.00 in0.0 mm 0.00 in0.0 mm 0.00 in0.0 mm
08:58 PM 73.3°F22.9°C 61.3°F16.3°C 66% 12.0 mph SE19.3 kmh SE 17.0 mph27.4 kmh 29.82 in1009.8 mb 0.00 in0.0 mm 0.00 in0.0 mm 0.00 in0.0 mm
09:00 PM 73.2°F22.9°C 61.2°F16.2°C 66% 8.0 mph ESE12.9 kmh ESE 17.0 mph27.4 kmh 29.83 in1010.2 mb 0.00 in0.0 mm 0.00 in0.0 mm 0.00 in0.0 mm
09:02 PM 73.1°F22.8°C 61.1°F16.2°C 66% 3.0 mph ESE4.8 kmh ESE 17.0 mph27.4 kmh 29.82 in1009.8 mb 0.00 in0.0 mm 0.00 in0.0 mm 0.00 in0.0 mm
09:04 PM 73.1°F22.8°C 61.1°F16.2°C 66% 5.0 mph S8.0 kmh S 12.0 mph19.3 kmh 29.82 in1009.8 mb 0.00 in0.0 mm 0.00 in0.0 mm 0.00 in0.0 mm
09:05 PM 73.0°F22.8°C 61.0°F16.1°C 66% 8.0 mph ESE12.9 kmh ESE 12.0 mph19.3 kmh 29.82 in1009.8 mb 0.00 in0.0 mm 0.00 in0.0 mm 0.00 in0.0 mm
09:08 PM 73.0°F22.8°C 61.4°F16.3°C 67% 7.0 mph S11.3 kmh S 13.0 mph20.9 kmh 29.82 in1009.8 mb 0.00 in0.0 mm 0.00 in0.0 mm 0.00 in0.0 mm
09:10 PM 72.9°F22.7°C 61.3°F16.3°C 67% 4.0 mph ESE6.4 kmh ESE 13.0 mph20.9 kmh 29.82 in1009.8 mb 0.00 in0.0 mm 0.00 in0.0 mm 0.00 in0.0 mm
09:12 PM 72.9°F22.7°C 61.3°F16.3°C 67% 4.0 mph SSE6.4 kmh SSE 13.0 mph20.9 kmh 29.82 in1009.8 mb 0.00 in0.0 mm 0.00 in0.0 mm 0.00 in0.0 mm
09:13 PM 72.9°F22.7°C 61.3°F16.3°C 67% 5.0 mph S8.0 kmh S 13.0 mph20.9 kmh 29.83 in1010.2 mb 0.00 in0.0 mm 0.00 in0.0 mm 0.00 in0.0 mm
09:16 PM 72.8°F22.7°C 61.2°F16.2°C 67% 4.0 mph ESE6.4 kmh ESE 13.0 mph20.9 kmh 29.84 in1010.5 mb 0.00 in0.0 mm 0.00 in0.0 mm 0.00 in0.0 mm
09:18 PM 72.7°F22.6°C 61.1°F16.2°C 67% 5.0 mph S8.0 kmh S 13.0 mph20.9 kmh 29.84 in1010.5 mb 0.00 in0.0 mm 0.00 in0.0 mm 0.00 in0.0 mm
09:19 PM 72.7°F22.6°C 61.5°F16.4°C 68% 4.0 mph ESE6.4 kmh ESE 14.0 mph22.5 kmh 29.85 in1010.8 mb 0.00 in0.0 mm 0.00 in0.0 mm 0.00 in0.0 mm
09:22 PM 72.7°F22.6°C 61.5°F16.4°C 68% 4.0 mph S6.4 kmh S 14.0 mph22.5 kmh 29.85 in1010.8 mb 0.00 in0.0 mm 0.00 in0.0 mm 0.00 in0.0 mm
09:24 PM 72.6°F22.6°C 61.4°F16.3°C 68% 4.0 mph SE6.4 kmh SE 14.0 mph22.5 kmh 29.86 in1011.2 mb 0.00 in0.0 mm 0.00 in0.0 mm 0.00 in0.0 mm
09:26 PM 72.6°F22.6°C 61.4°F16.3°C 68% 5.0 mph SE8.0 kmh SE 14.0 mph22.5 kmh 29.86 in1011.2 mb 0.00 in0.0 mm 0.00 in0.0 mm 0.00 in0.0 mm
09:28 PM 72.6°F22.6°C 61.9°F16.6°C 69% 3.0 mph SSW4.8 kmh SSW 14.0 mph22.5 kmh 29.86 in1011.2 mb 0.01 in0.3 mm 0.30 in7.6 mm 0.01 in0.3 mm
09:29 PM 72.3°F22.4°C 62.0°F16.7°C 70% 15.0 mph SSW24.1 kmh SSW 15.0 mph24.1 kmh 29.87 in1011.5 mb 0.04 in1.0 mm 1.80 in45.7 mm 0.04 in1.0 mm
09:32 PM 71.7°F22.1°C 62.2°F16.8°C 72% 6.0 mph SSE9.7 kmh SSE 15.0 mph24.1 kmh 29.87 in1011.5 mb 0.04 in1.0 mm 0.00 in0.0 mm 0.04 in1.0 mm
09:34 PM 71.3°F21.8°C 62.2°F16.8°C 73% 2.0 mph ESE3.2 kmh ESE 7.0 mph11.3 kmh 29.86 in1011.2 mb 0.04 in1.0 mm 0.00 in0.0 mm 0.04 in1.0 mm
09:36 PM 71.0°F21.7°C 62.3°F16.8°C 74% 5.0 mph SE8.0 kmh SE 7.0 mph11.3 kmh 29.87 in1011.5 mb 0.04 in1.0 mm 0.00 in0.0 mm 0.04 in1.0 mm
09:38 PM 70.7°F21.5°C 62.4°F16.9°C 75% 4.0 mph SSE6.4 kmh SSE 7.0 mph11.3 kmh 29.87 in1011.5 mb 0.04 in1.0 mm 0.00 in0.0 mm 0.04 in1.0 mm
09:40 PM 70.3°F21.3°C 62.4°F16.9°C 76% 3.0 mph SE4.8 kmh SE 7.0 mph11.3 kmh 29.87 in1011.5 mb 0.04 in1.0 mm 0.00 in0.0 mm 0.04 in1.0 mm
09:42 PM 70.0°F21.1°C 62.5°F16.9°C 77% 3.0 mph SSE4.8 kmh SSE 7.0 mph11.3 kmh 29.86 in1011.2 mb 0.04 in1.0 mm 0.00 in0.0 mm 0.04 in1.0 mm
09:44 PM 69.7°F20.9°C 62.2°F16.8°C 77% 3.0 mph SSE4.8 kmh SSE 7.0 mph11.3 kmh 29.87 in1011.5 mb 0.04 in1.0 mm 0.00 in0.0 mm 0.04 in1.0 mm
09:46 PM 69.6°F20.9°C 62.4°F16.9°C 78% 3.0 mph SE4.8 kmh SE 11.0 mph17.7 kmh 29.87 in1011.5 mb 0.04 in1.0 mm 0.00 in0.0 mm 0.04 in1.0 mm
09:48 PM 69.4°F20.8°C 62.3°F16.8°C 78% 2.0 mph SE3.2 kmh SE 11.0 mph17.7 kmh 29.87 in1011.5 mb 0.04 in1.0 mm 0.00 in0.0 mm 0.04 in1.0 mm
09:50 PM 69.3°F20.7°C 62.5°F16.9°C 79% 4.0 mph SE6.4 kmh SE 11.0 mph17.7 kmh 29.86 in1011.2 mb 0.04 in1.0 mm 0.00 in0.0 mm 0.04 in1.0 mm
09:52 PM 69.2°F20.7°C 62.4°F16.9°C 79% 5.0 mph S8.0 kmh S 11.0 mph17.7 kmh 29.87 in1011.5 mb 0.04 in1.0 mm 0.00 in0.0 mm 0.04 in1.0 mm
09:54 PM 69.0°F20.6°C 62.2°F16.8°C 79% 4.0 mph SSE6.4 kmh SSE 11.0 mph17.7 kmh 29.87 in1011.5 mb 0.04 in1.0 mm 0.00 in0.0 mm 0.04 in1.0 mm
09:56 PM 68.9°F20.5°C 62.1°F16.7°C 79% 2.0 mph S3.2 kmh S 11.0 mph17.7 kmh 29.87 in1011.5 mb 0.04 in1.0 mm 0.00 in0.0 mm 0.04 in1.0 mm
09:58 PM 68.9°F20.5°C 62.5°F16.9°C 80% 5.0 mph SSE8.0 kmh SSE 11.0 mph17.7 kmh 29.87 in1011.5 mb 0.04 in1.0 mm 0.00 in0.0 mm 0.04 in1.0 mm
10:00 PM 68.8°F20.4°C 62.4°F16.9°C 80% 1.0 mph SSE1.6 kmh SSE 11.0 mph17.7 kmh 29.87 in1011.5 mb 0.04 in1.0 mm 0.00 in0.0 mm 0.04 in1.0 mm
10:02 PM 68.7°F20.4°C 62.3°F16.8°C 80% 4.0 mph SE6.4 kmh SE 11.0 mph17.7 kmh 29.88 in1011.9 mb 0.04 in1.0 mm 0.00 in0.0 mm 0.04 in1.0 mm
10:04 PM 68.7°F20.4°C 62.3°F16.8°C 80% 2.0 mph ESE3.2 kmh ESE 6.0 mph9.7 kmh 29.87 in1011.5 mb 0.04 in1.0 mm 0.00 in0.0 mm 0.04 in1.0 mm
10:06 PM 68.5°F20.3°C 62.1°F16.7°C 80% 2.0 mph SE3.2 kmh SE 6.0 mph9.7 kmh 29.87 in1011.5 mb 0.04 in1.0 mm 0.00 in0.0 mm 0.04 in1.0 mm
10:08 PM 68.5°F20.3°C 62.1°F16.7°C 80% 4.0 mph ESE6.4 kmh ESE 7.0 mph11.3 kmh 29.88 in1011.9 mb 0.04 in1.0 mm 0.00 in0.0 mm 0.04 in1.0 mm
10:10 PM 68.5°F20.3°C 62.1°F16.7°C 80% 3.0 mph SE4.8 kmh SE 7.0 mph11.3 kmh 29.87 in1011.5 mb 0.04 in1.0 mm 0.00 in0.0 mm 0.04 in1.0 mm
10:11 PM 68.4°F20.2°C 62.0°F16.7°C 80% 5.0 mph SE8.0 kmh SE 7.0 mph11.3 kmh 29.87 in1011.5 mb 0.04 in1.0 mm 0.00 in0.0 mm 0.04 in1.0 mm
10:14 PM 68.4°F20.2°C 62.4°F16.9°C 81% 2.0 mph SE3.2 kmh SE 7.0 mph11.3 kmh 29.87 in1011.5 mb 0.04 in1.0 mm 0.00 in0.0 mm 0.04 in1.0 mm
10:16 PM 68.3°F20.2°C 62.3°F16.8°C 81% 4.0 mph SE6.4 kmh SE 7.0 mph11.3 kmh 29.87 in1011.5 mb 0.04 in1.0 mm 0.00 in0.0 mm 0.04 in1.0 mm
10:18 PM 68.3°F20.2°C 62.3°F16.8°C 81% 3.0 mph ESE4.8 kmh ESE 7.0 mph11.3 kmh 29.87 in1011.5 mb 0.04 in1.0 mm 0.00 in0.0 mm 0.04 in1.0 mm
10:19 PM 68.2°F20.1°C 62.2°F16.8°C 81% 2.0 mph SE3.2 kmh SE 7.0 mph11.3 kmh 29.87 in1011.5 mb 0.04 in1.0 mm 0.00 in0.0 mm 0.04 in1.0 mm
10:22 PM 68.2°F20.1°C 62.2°F16.8°C 81% 2.0 mph ESE3.2 kmh ESE 7.0 mph11.3 kmh 29.87 in1011.5 mb 0.04 in1.0 mm 0.00 in0.0 mm 0.04 in1.0 mm
10:24 PM 68.2°F20.1°C 62.2°F16.8°C 81% 4.0 mph SE6.4 kmh SE 7.0 mph11.3 kmh 29.87 in1011.5 mb 0.04 in1.0 mm 0.00 in0.0 mm 0.04 in1.0 mm
10:26 PM 68.2°F20.1°C 62.2°F16.8°C 81% 1.0 mph SE1.6 kmh SE 7.0 mph11.3 kmh 29.87 in1011.5 mb 0.04 in1.0 mm 0.00 in0.0 mm 0.04 in1.0 mm
10:28 PM 68.1°F20.1°C 62.1°F16.7°C 81% 3.0 mph SE4.8 kmh SE 7.0 mph11.3 kmh 29.87 in1011.5 mb 0.04 in1.0 mm 0.00 in0.0 mm 0.04 in1.0 mm
10:30 PM 68.1°F20.1°C 62.4°F16.9°C 82% 5.0 mph SSE8.0 kmh SSE 7.0 mph11.3 kmh 29.87 in1011.5 mb 0.04 in1.0 mm 0.00 in0.0 mm 0.04 in1.0 mm
10:32 PM 68.1°F20.1°C 62.4°F16.9°C 82% 7.0 mph SE11.3 kmh SE 7.0 mph11.3 kmh 29.87 in1011.5 mb 0.04 in1.0 mm 0.00 in0.0 mm 0.04 in1.0 mm
10:34 PM 68.1°F20.1°C 62.4°F16.9°C 82% 3.0 mph E4.8 kmh E 5.0 mph8.0 kmh 29.87 in1011.5 mb 0.00 in0.0 mm 0.00 in0.0 mm 0.04 in1.0 mm
10:35 PM 68.0°F20.0°C 62.3°F16.8°C 82% 5.0 mph SE8.0 kmh SE 6.0 mph9.7 kmh 29.87 in1011.5 mb 0.00 in0.0 mm 0.00 in0.0 mm 0.04 in1.0 mm
10:37 PM 68.1°F20.1°C 62.1°F16.7°C 81% 3.0 mph SE4.8 kmh SE 7.0 mph11.3 kmh 29.87 in1011.5 mb 0.00 in0.0 mm 0.00 in0.0 mm 0.04 in1.0 mm
10:40 PM 68.2°F20.1°C 62.2°F16.8°C 81% 5.0 mph SSE8.0 kmh SSE 7.0 mph11.3 kmh 29.87 in1011.5 mb 0.00 in0.0 mm 0.00 in0.0 mm 0.04 in1.0 mm
10:42 PM 68.2°F20.1°C 62.2°F16.8°C 81% 5.0 mph SE8.0 kmh SE 7.0 mph11.3 kmh 29.87 in1011.5 mb 0.00 in0.0 mm 0.00 in0.0 mm 0.04 in1.0 mm
10:44 PM 68.2°F20.1°C 62.2°F16.8°C 81% 7.0 mph ESE11.3 kmh ESE 7.0 mph11.3 kmh 29.87 in1011.5 mb 0.00 in0.0 mm 0.00 in0.0 mm 0.04 in1.0 mm
10:46 PM 68.2°F20.1°C 62.2°F16.8°C 81% 6.0 mph E9.7 kmh E 8.0 mph12.9 kmh 29.87 in1011.5 mb 0.00 in0.0 mm 0.00 in0.0 mm 0.04 in1.0 mm
10:48 PM 68.2°F20.1°C 62.2°F16.8°C 81% 10.0 mph SSE16.1 kmh SSE 10.0 mph16.1 kmh 29.87 in1011.5 mb 0.00 in0.0 mm 0.00 in0.0 mm 0.04 in1.0 mm
10:50 PM 68.3°F20.2°C 62.3°F16.8°C 81% 3.0 mph SSE4.8 kmh SSE 10.0 mph16.1 kmh 29.87 in1011.5 mb 0.00 in0.0 mm 0.00 in0.0 mm 0.04 in1.0 mm
10:52 PM 68.3°F20.2°C 62.3°F16.8°C 81% 5.0 mph SE8.0 kmh SE 10.0 mph16.1 kmh 29.87 in1011.5 mb 0.00 in0.0 mm 0.00 in0.0 mm 0.04 in1.0 mm
10:54 PM 68.3°F20.2°C 62.3°F16.8°C 81% 1.0 mph SE1.6 kmh SE 11.0 mph17.7 kmh 29.87 in1011.5 mb 0.00 in0.0 mm 0.00 in0.0 mm 0.04 in1.0 mm
10:56 PM 68.4°F20.2°C 62.0°F16.7°C 80% 2.0 mph SE3.2 kmh SE 11.0 mph17.7 kmh 29.87 in1011.5 mb 0.00 in0.0 mm 0.00 in0.0 mm 0.04 in1.0 mm
10:58 PM 68.4°F20.2°C 62.0°F16.7°C 80% 3.0 mph ESE4.8 kmh ESE 11.0 mph17.7 kmh 29.87 in1011.5 mb 0.00 in0.0 mm 0.00 in0.0 mm 0.04 in1.0 mm
11:00 PM 68.4°F20.2°C 62.0°F16.7°C 80% 4.0 mph SE6.4 kmh SE 11.0 mph17.7 kmh 29.87 in1011.5 mb 0.00 in0.0 mm 0.00 in0.0 mm 0.04 in1.0 mm
11:02 PM 68.5°F20.3°C 62.1°F16.7°C 80% 6.0 mph SE9.7 kmh SE 11.0 mph17.7 kmh 29.87 in1011.5 mb 0.00 in0.0 mm 0.00 in0.0 mm 0.04 in1.0 mm
11:04 PM 68.5°F20.3°C 62.1°F16.7°C 80% 1.0 mph SE1.6 kmh SE 8.0 mph12.9 kmh 29.87 in1011.5 mb 0.00 in0.0 mm 0.00 in0.0 mm 0.04 in1.0 mm
11:06 PM 68.5°F20.3°C 62.1°F16.7°C 80% 4.0 mph S6.4 kmh S 8.0 mph12.9 kmh 29.87 in1011.5 mb 0.00 in0.0 mm 0.00 in0.0 mm 0.04 in1.0 mm
11:08 PM 68.5°F20.3°C 62.1°F16.7°C 80% 8.0 mph SSE12.9 kmh SSE 9.0 mph14.5 kmh 29.87 in1011.5 mb 0.00 in0.0 mm 0.00 in0.0 mm 0.04 in1.0 mm
11:10 PM 68.6°F20.3°C 62.2°F16.8°C 80% 2.0 mph SSE3.2 kmh SSE 10.0 mph16.1 kmh 29.87 in1011.5 mb 0.00 in0.0 mm 0.00 in0.0 mm 0.04 in1.0 mm
11:12 PM 68.7°F20.4°C 62.3°F16.8°C 80% 7.0 mph SSE11.3 kmh SSE 10.0 mph16.1 kmh 29.87 in1011.5 mb 0.00 in0.0 mm 0.00 in0.0 mm 0.04 in1.0 mm
11:14 PM 68.7°F20.4°C 62.3°F16.8°C 80% 4.0 mph S6.4 kmh S 10.0 mph16.1 kmh 29.87 in1011.5 mb 0.00 in0.0 mm 0.00 in0.0 mm 0.04 in1.0 mm
11:16 PM 68.7°F20.4°C 62.3°F16.8°C 80% 7.0 mph SE11.3 kmh SE 10.0 mph16.1 kmh 29.87 in1011.5 mb 0.00 in0.0 mm 0.00 in0.0 mm 0.04 in1.0 mm
11:18 PM 68.7°F20.4°C 61.9°F16.6°C 79% 4.0 mph SSE6.4 kmh SSE 10.0 mph16.1 kmh 29.87 in1011.5 mb 0.00 in0.0 mm 0.00 in0.0 mm 0.04 in1.0 mm
11:20 PM 68.8°F20.4°C 62.0°F16.7°C 79% 2.0 mph SE3.2 kmh SE 10.0 mph16.1 kmh 29.87 in1011.5 mb 0.00 in0.0 mm 0.00 in0.0 mm 0.04 in1.0 mm
11:22 PM 68.8°F20.4°C 62.0°F16.7°C 79% 8.0 mph SE12.9 kmh SE 10.0 mph16.1 kmh 29.87 in1011.5 mb 0.00 in0.0 mm 0.00 in0.0 mm 0.04 in1.0 mm
11:24 PM 68.8°F20.4°C 62.0°F16.7°C 79% 6.0 mph SSE9.7 kmh SSE 10.0 mph16.1 kmh 29.87 in1011.5 mb 0.00 in0.0 mm 0.00 in0.0 mm 0.04 in1.0 mm
11:26 PM 68.8°F20.4°C 62.0°F16.7°C 79% 7.0 mph SE11.3 kmh SE 11.0 mph17.7 kmh 29.86 in1011.2 mb 0.00 in0.0 mm 0.00 in0.0 mm 0.04 in1.0 mm
11:28 PM 68.8°F20.4°C 62.0°F16.7°C 79% 12.0 mph SE19.3 kmh SE 13.0 mph20.9 kmh 29.86 in1011.2 mb 0.00 in0.0 mm 0.00 in0.0 mm 0.04 in1.0 mm
11:30 PM 68.8°F20.4°C 62.0°F16.7°C 79% 8.0 mph SSE12.9 kmh SSE 13.0 mph20.9 kmh 29.86 in1011.2 mb 0.00 in0.0 mm 0.00 in0.0 mm 0.04 in1.0 mm
11:32 PM 68.9°F20.5°C 62.1°F16.7°C 79% 4.0 mph SE6.4 kmh SE 15.0 mph24.1 kmh 29.86 in1011.2 mb 0.00 in0.0 mm 0.00 in0.0 mm 0.04 in1.0 mm
11:34 PM 68.9°F20.5°C 62.1°F16.7°C 79% 9.0 mph ESE14.5 kmh ESE 11.0 mph17.7 kmh 29.86 in1011.2 mb 0.00 in0.0 mm 0.00 in0.0 mm 0.04 in1.0 mm
11:36 PM 68.9°F20.5°C 62.1°F16.7°C 79% 4.0 mph SE6.4 kmh SE 12.0 mph19.3 kmh 29.86 in1011.2 mb 0.00 in0.0 mm 0.00 in0.0 mm 0.04 in1.0 mm
11:38 PM 69.0°F20.6°C 62.2°F16.8°C 79% 9.0 mph S14.5 kmh S 12.0 mph19.3 kmh 29.85 in1010.8 mb 0.00 in0.0 mm 0.00 in0.0 mm 0.04 in1.0 mm
11:40 PM 69.0°F20.6°C 62.2°F16.8°C 79% 8.0 mph SSE12.9 kmh SSE 14.0 mph22.5 kmh 29.85 in1010.8 mb 0.00 in0.0 mm 0.00 in0.0 mm 0.04 in1.0 mm
11:42 PM 69.1°F20.6°C 62.0°F16.7°C 78% 8.0 mph SSE12.9 kmh SSE 14.0 mph22.5 kmh 29.85 in1010.8 mb 0.00 in0.0 mm 0.00 in0.0 mm 0.04 in1.0 mm
11:44 PM 69.1°F20.6°C 62.0°F16.7°C 78% 7.0 mph S11.3 kmh S 15.0 mph24.1 kmh 29.85 in1010.8 mb 0.00 in0.0 mm 0.00 in0.0 mm 0.04 in1.0 mm
11:46 PM 69.2°F20.7°C 62.1°F16.7°C 78% 13.0 mph S20.9 kmh S 17.0 mph27.4 kmh 29.85 in1010.8 mb 0.00 in0.0 mm 0.00 in0.0 mm 0.04 in1.0 mm
11:48 PM 69.2°F20.7°C 62.1°F16.7°C 78% 7.0 mph S11.3 kmh S 17.0 mph27.4 kmh 29.85 in1010.8 mb 0.00 in0.0 mm 0.00 in0.0 mm 0.04 in1.0 mm
11:50 PM 69.2°F20.7°C 62.1°F16.7°C 78% 9.0 mph SE14.5 kmh SE 17.0 mph27.4 kmh 29.85 in1010.8 mb 0.00 in0.0 mm 0.00 in0.0 mm 0.04 in1.0 mm
11:52 PM 69.2°F20.7°C 62.1°F16.7°C 78% 12.0 mph S19.3 kmh S 17.0 mph27.4 kmh 29.85 in1010.8 mb 0.00 in0.0 mm 0.00 in0.0 mm 0.04 in1.0 mm
11:54 PM 69.2°F20.7°C 62.1°F16.7°C 78% 9.0 mph S14.5 kmh S 17.0 mph27.4 kmh 29.85 in1010.8 mb 0.00 in0.0 mm 0.00 in0.0 mm 0.04 in1.0 mm
11:56 PM 69.3°F20.7°C 62.2°F16.8°C 78% 5.0 mph S8.0 kmh S 17.0 mph27.4 kmh 29.85 in1010.8 mb 0.00 in0.0 mm 0.00 in0.0 mm 0.04 in1.0 mm
11:58 PM 69.3°F20.7°C 62.2°F16.8°C 78% 5.0 mph S8.0 kmh S 17.0 mph27.4 kmh 29.85 in1010.8 mb 0.00 in0.0 mm 0.00 in0.0 mm 0.04 in1.0 mm